HAL2990 KLAX-PHNL
Flight info
| Callsign | HAL2990 |
|---|---|
| Flight time | N/A |
| Altitude | 40000 |
| Route | SUMMR2 DINTY DUETS 3335N12855W DADIE R576 DENNS MAGGI3 |
| Aircraft | A332/H-SDE3GHIJ2J3J5M1RVWXY/LB2D1 |
Departure
| Time | 2026-04-25 20:45 |
|---|---|
| Airport | Los Angeles International Airport (KLAX) |
Arrival
| Time | N/A |
|---|---|
| Airport | Daniel K. Inouye International Airport (PHNL) |
| Time | Latitude | Longitude | Altitude | Speed | Heading |
|---|---|---|---|---|---|
| 2026-04-25 20:17 | 33.94023 | -118.39996 | 124 ft | 0 kts | 28° |
| 2026-04-25 20:32 | 33.94010 | -118.40004 | 124 ft | 2 kts | 28° |
| 2026-04-25 20:32 | 33.93994 | -118.40013 | 124 ft | 3 kts | 351° |
| 2026-04-25 20:32 | 33.93977 | -118.40006 | 124 ft | 2 kts | 328° |
| 2026-04-25 20:32 | 33.93965 | -118.39991 | 124 ft | 2 kts | 297° |
| 2026-04-25 20:33 | 33.93966 | -118.39994 | 124 ft | 0 kts | 297° |
| 2026-04-25 20:33 | 33.93964 | -118.39988 | 124 ft | 2 kts | 305° |
| 2026-04-25 20:33 | 33.93957 | -118.39976 | 124 ft | 0 kts | 270° |
| 2026-04-25 20:35 | 33.93957 | -118.39989 | 124 ft | 4 kts | 270° |
| 2026-04-25 20:35 | 33.93954 | -118.40041 | 125 ft | 9 kts | 263° |
| 2026-04-25 20:35 | 33.93943 | -118.40162 | 126 ft | 16 kts | 264° |
| 2026-04-25 20:36 | 33.93929 | -118.40299 | 127 ft | 17 kts | 263° |
| 2026-04-25 20:36 | 33.93914 | -118.40446 | 128 ft | 18 kts | 263° |
| 2026-04-25 20:36 | 33.93898 | -118.40599 | 126 ft | 19 kts | 263° |
| 2026-04-25 20:36 | 33.93883 | -118.40756 | 125 ft | 19 kts | 263° |
| 2026-04-25 20:37 | 33.93866 | -118.40915 | 124 ft | 19 kts | 263° |
| 2026-04-25 20:37 | 33.93851 | -118.41058 | 125 ft | 16 kts | 263° |
| 2026-04-25 20:37 | 33.93872 | -118.41154 | 126 ft | 6 kts | 329° |
| 2026-04-25 20:37 | 33.93922 | -118.41170 | 127 ft | 10 kts | 351° |
| 2026-04-25 20:38 | 33.94007 | -118.41182 | 127 ft | 15 kts | 352° |
| 2026-04-25 20:38 | 33.94119 | -118.41200 | 127 ft | 17 kts | 352° |
| 2026-04-25 20:38 | 33.94240 | -118.41217 | 126 ft | 18 kts | 355° |
| 2026-04-25 20:38 | 33.94364 | -118.41233 | 127 ft | 18 kts | 352° |
| 2026-04-25 20:39 | 33.94490 | -118.41256 | 127 ft | 19 kts | 352° |
| 2026-04-25 20:39 | 33.94623 | -118.41275 | 127 ft | 19 kts | 353° |
| 2026-04-25 20:39 | 33.94712 | -118.41287 | 125 ft | 9 kts | 355° |
| 2026-04-25 20:39 | 33.94750 | -118.41282 | 125 ft | 8 kts | 17° |
| 2026-04-25 20:40 | 33.94798 | -118.41211 | 126 ft | 9 kts | 74° |
| 2026-04-25 20:40 | 33.94812 | -118.41107 | 127 ft | 13 kts | 83° |
| 2026-04-25 20:40 | 33.94825 | -118.40991 | 127 ft | 15 kts | 82° |
| 2026-04-25 20:40 | 33.94838 | -118.40859 | 129 ft | 19 kts | 83° |
| 2026-04-25 20:41 | 33.94856 | -118.40692 | 129 ft | 21 kts | 82° |
| 2026-04-25 20:41 | 33.94875 | -118.40513 | 125 ft | 22 kts | 83° |
| 2026-04-25 20:41 | 33.94891 | -118.40362 | 124 ft | 17 kts | 83° |
| 2026-04-25 20:41 | 33.94906 | -118.40215 | 125 ft | 18 kts | 83° |
| 2026-04-25 20:42 | 33.94919 | -118.40077 | 124 ft | 13 kts | 84° |
| 2026-04-25 20:42 | 33.94929 | -118.39983 | 129 ft | 10 kts | 78° |
| 2026-04-25 20:42 | 33.94949 | -118.39938 | 126 ft | 0 kts | 47° |
| 2026-04-25 20:43 | 33.94962 | -118.39929 | 124 ft | 8 kts | 26° |
| 2026-04-25 20:43 | 33.95024 | -118.39949 | 126 ft | 9 kts | 308° |
| 2026-04-25 20:43 | 33.95034 | -118.40006 | 124 ft | 0 kts | 268° |
| 2026-04-25 20:44 | 33.95033 | -118.40012 | 124 ft | 5 kts | 265° |
| 2026-04-25 20:45 | 33.95005 | -118.40313 | 124 ft | 75 kts | 263° |
| 2026-04-25 20:45 | 33.94905 | -118.41258 | 125 ft | 151 kts | 263° |
| 2026-04-25 20:45 | 33.94745 | -118.42761 | 377 ft | 205 kts | 262° |
| 2026-04-25 20:45 | 33.94559 | -118.44509 | 1157 ft | 212 kts | 263° |
| 2026-04-25 20:46 | 33.94402 | -118.46351 | 1639 ft | 233 kts | 266° |
| 2026-04-25 20:46 | 33.94312 | -118.48395 | 2054 ft | 253 kts | 268° |
| 2026-04-25 20:46 | 33.94222 | -118.50542 | 2721 ft | 260 kts | 266° |
| 2026-04-25 20:46 | 33.94074 | -118.52732 | 3438 ft | 264 kts | 265° |
| 2026-04-25 20:47 | 33.93908 | -118.54921 | 4172 ft | 267 kts | 264° |
| 2026-04-25 20:47 | 33.93731 | -118.57194 | 4756 ft | 271 kts | 264° |
| 2026-04-25 20:47 | 33.93557 | -118.59426 | 4987 ft | 272 kts | 264° |
| 2026-04-25 20:47 | 33.93378 | -118.61702 | 5018 ft | 273 kts | 264° |
| 2026-04-25 20:48 | 33.93199 | -118.63982 | 5020 ft | 274 kts | 264° |
| 2026-04-25 20:48 | 33.93022 | -118.66270 | 5223 ft | 274 kts | 264° |
| 2026-04-25 20:48 | 33.92845 | -118.68552 | 5832 ft | 277 kts | 264° |
| 2026-04-25 20:48 | 33.92665 | -118.70871 | 6654 ft | 279 kts | 264° |
| 2026-04-25 20:49 | 33.92483 | -118.73205 | 7461 ft | 281 kts | 264° |
| 2026-04-25 20:49 | 33.92299 | -118.75566 | 8258 ft | 284 kts | 264° |
| 2026-04-25 20:49 | 33.92113 | -118.77949 | 9050 ft | 288 kts | 264° |
| 2026-04-25 20:49 | 33.91923 | -118.80360 | 9833 ft | 291 kts | 264° |
| 2026-04-25 20:50 | 33.91753 | -118.82783 | 10440 ft | 301 kts | 267° |
| 2026-04-25 20:50 | 33.91746 | -118.85389 | 10761 ft | 321 kts | 271° |
| 2026-04-25 20:50 | 33.91823 | -118.88157 | 11065 ft | 339 kts | 272° |
| 2026-04-25 20:50 | 33.91917 | -118.91075 | 11347 ft | 356 kts | 272° |
| 2026-04-25 20:51 | 33.92012 | -118.94099 | 11825 ft | 366 kts | 272° |
| 2026-04-25 20:51 | 33.92106 | -118.97180 | 12433 ft | 371 kts | 272° |
| 2026-04-25 20:51 | 33.92310 | -119.00297 | 13063 ft | 375 kts | 280° |
| 2026-04-25 20:51 | 33.93130 | -119.03288 | 13687 ft | 379 kts | 296° |
| 2026-04-25 20:52 | 33.94441 | -119.06049 | 14312 ft | 382 kts | 301° |
| 2026-04-25 20:52 | 33.95376 | -119.07852 | 14712 ft | 384 kts | 302° |
| 2026-04-25 20:52 | 33.97268 | -119.11494 | 15495 ft | 389 kts | 299° |
| 2026-04-25 20:52 | 33.98404 | -119.14510 | 16074 ft | 393 kts | 287° |
| 2026-04-25 20:53 | 33.98889 | -119.17702 | 16625 ft | 396 kts | 272° |
| 2026-04-25 20:53 | 33.98805 | -119.21031 | 17179 ft | 399 kts | 265° |
| 2026-04-25 20:53 | 33.98454 | -119.24372 | 17710 ft | 402 kts | 261° |
| 2026-04-25 20:53 | 33.97955 | -119.27710 | 18230 ft | 405 kts | 259° |
| 2026-04-25 20:54 | 33.97393 | -119.31063 | 18728 ft | 409 kts | 258° |
| 2026-04-25 20:54 | 33.96819 | -119.34431 | 19215 ft | 412 kts | 258° |
| 2026-04-25 20:54 | 33.96262 | -119.37775 | 19680 ft | 415 kts | 259° |
| 2026-04-25 20:54 | 33.95710 | -119.41206 | 20140 ft | 418 kts | 259° |
| 2026-04-25 20:55 | 33.95169 | -119.44661 | 20593 ft | 421 kts | 259° |
| 2026-04-25 20:55 | 33.94636 | -119.48135 | 21030 ft | 423 kts | 259° |
| 2026-04-25 20:55 | 33.94101 | -119.51647 | 21461 ft | 426 kts | 259° |
| 2026-04-25 20:55 | 33.93565 | -119.55177 | 21882 ft | 429 kts | 259° |
| 2026-04-25 20:56 | 33.93026 | -119.58722 | 22291 ft | 432 kts | 259° |
| 2026-04-25 20:56 | 33.92489 | -119.62244 | 22690 ft | 434 kts | 259° |
| 2026-04-25 20:56 | 33.91939 | -119.65834 | 23082 ft | 437 kts | 259° |
| 2026-04-25 20:56 | 33.91384 | -119.69444 | 23469 ft | 440 kts | 259° |
| 2026-04-25 20:57 | 33.90825 | -119.73075 | 23851 ft | 442 kts | 259° |
| 2026-04-25 20:57 | 33.90260 | -119.76731 | 24233 ft | 445 kts | 259° |
| 2026-04-25 20:57 | 33.89691 | -119.80409 | 24608 ft | 448 kts | 259° |
| 2026-04-25 20:57 | 33.89117 | -119.84108 | 24974 ft | 450 kts | 259° |
| 2026-04-25 20:58 | 33.88539 | -119.87824 | 25335 ft | 453 kts | 259° |
| 2026-04-25 20:58 | 33.87963 | -119.91522 | 25683 ft | 455 kts | 259° |
| 2026-04-25 20:58 | 33.87379 | -119.95269 | 26034 ft | 458 kts | 259° |
| 2026-04-25 20:58 | 33.86787 | -119.99051 | 26377 ft | 460 kts | 259° |
| 2026-04-25 20:59 | 33.86191 | -120.02853 | 26718 ft | 463 kts | 259° |
| 2026-04-25 20:59 | 33.85593 | -120.06665 | 27049 ft | 465 kts | 259° |
| 2026-04-25 20:59 | 33.84990 | -120.10497 | 27370 ft | 467 kts | 259° |
| 2026-04-25 20:59 | 33.84381 | -120.14360 | 27692 ft | 470 kts | 259° |
| 2026-04-25 21:00 | 33.83769 | -120.18230 | 27996 ft | 472 kts | 259° |
| 2026-04-25 21:00 | 33.83569 | -120.19491 | 28102 ft | 473 kts | 259° |
| 2026-04-25 21:00 | 33.81910 | -120.29942 | 28896 ft | 479 kts | 259° |
| 2026-04-25 21:01 | 33.81290 | -120.33831 | 29177 ft | 481 kts | 259° |
| 2026-04-25 21:01 | 33.80658 | -120.37790 | 29455 ft | 483 kts | 259° |
| 2026-04-25 21:01 | 33.80022 | -120.41760 | 29728 ft | 485 kts | 259° |
| 2026-04-25 21:01 | 33.79381 | -120.45757 | 29996 ft | 487 kts | 259° |
| 2026-04-25 21:02 | 33.78739 | -120.49752 | 30248 ft | 489 kts | 259° |
| 2026-04-25 21:02 | 33.78090 | -120.53780 | 30501 ft | 491 kts | 259° |
| 2026-04-25 21:02 | 33.77437 | -120.57826 | 30766 ft | 492 kts | 259° |
| 2026-04-25 21:02 | 33.76784 | -120.61862 | 31127 ft | 491 kts | 259° |
| 2026-04-25 21:03 | 33.76131 | -120.65884 | 31496 ft | 490 kts | 259° |
| 2026-04-25 21:03 | 33.75477 | -120.69912 | 31852 ft | 489 kts | 259° |
| 2026-04-25 21:03 | 33.74831 | -120.73875 | 32179 ft | 488 kts | 259° |
| 2026-04-25 21:03 | 33.74178 | -120.77880 | 32515 ft | 488 kts | 259° |
| 2026-04-25 21:04 | 33.73522 | -120.81890 | 32849 ft | 487 kts | 259° |
| 2026-04-25 21:04 | 33.72868 | -120.85876 | 33167 ft | 487 kts | 259° |
| 2026-04-25 21:04 | 33.72214 | -120.89860 | 33474 ft | 486 kts | 259° |
| 2026-04-25 21:04 | 33.71557 | -120.93850 | 33780 ft | 485 kts | 259° |
| 2026-04-25 21:05 | 33.70901 | -120.97832 | 34079 ft | 485 kts | 259° |
| 2026-04-25 21:05 | 33.70243 | -121.01811 | 34381 ft | 484 kts | 259° |
| 2026-04-25 21:05 | 33.69586 | -121.05779 | 34672 ft | 484 kts | 259° |
| 2026-04-25 21:05 | 33.68937 | -121.09688 | 34956 ft | 483 kts | 259° |
| 2026-04-25 21:06 | 33.68280 | -121.13638 | 35234 ft | 483 kts | 258° |
| 2026-04-25 21:06 | 33.67621 | -121.17590 | 35499 ft | 482 kts | 258° |
| 2026-04-25 21:06 | 33.66960 | -121.21550 | 35783 ft | 482 kts | 258° |
| 2026-04-25 21:07 | 33.65864 | -121.28094 | 36199 ft | 481 kts | 258° |
| 2026-04-25 21:07 | 33.65202 | -121.32033 | 36439 ft | 481 kts | 258° |
| 2026-04-25 21:07 | 33.64540 | -121.35968 | 36664 ft | 481 kts | 258° |
| 2026-04-25 21:07 | 33.63877 | -121.39902 | 36874 ft | 481 kts | 258° |
| 2026-04-25 21:08 | 33.63212 | -121.43840 | 37099 ft | 481 kts | 258° |
| 2026-04-25 21:08 | 33.62544 | -121.47783 | 37303 ft | 481 kts | 258° |
| 2026-04-25 21:08 | 33.61878 | -121.51711 | 37504 ft | 481 kts | 258° |
| 2026-04-25 21:08 | 33.61209 | -121.55647 | 37703 ft | 481 kts | 258° |
| 2026-04-25 21:09 | 33.59866 | -121.63522 | 38091 ft | 481 kts | 258° |
| 2026-04-25 21:09 | 33.59202 | -121.67408 | 38265 ft | 481 kts | 258° |
| 2026-04-25 21:09 | 33.58528 | -121.71342 | 38452 ft | 481 kts | 258° |
| 2026-04-25 21:10 | 33.57853 | -121.75272 | 38621 ft | 481 kts | 258° |
| 2026-04-25 21:10 | 33.57177 | -121.79203 | 38801 ft | 481 kts | 258° |
| 2026-04-25 21:10 | 33.56498 | -121.83141 | 38956 ft | 481 kts | 258° |
| 2026-04-25 21:10 | 33.55818 | -121.87078 | 39117 ft | 481 kts | 258° |
| 2026-04-25 21:11 | 33.55138 | -121.91007 | 39267 ft | 481 kts | 258° |
| 2026-04-25 21:11 | 33.54457 | -121.94934 | 39426 ft | 481 kts | 258° |
| 2026-04-25 21:11 | 33.53773 | -121.98872 | 39580 ft | 481 kts | 258° |
| 2026-04-25 21:11 | 33.53089 | -122.02799 | 39721 ft | 481 kts | 258° |
| 2026-04-25 21:12 | 33.52414 | -122.06671 | 39860 ft | 481 kts | 258° |
| 2026-04-25 21:12 | 33.51727 | -122.10600 | 39982 ft | 482 kts | 258° |
| 2026-04-25 21:12 | 33.50572 | -122.17190 | 40002 ft | 481 kts | 258° |
| 2026-04-25 21:13 | 33.48964 | -122.26333 | 39999 ft | 481 kts | 258° |
| 2026-04-25 21:13 | 33.47576 | -122.34187 | 40003 ft | 481 kts | 258° |
| 2026-04-25 21:14 | 33.46195 | -122.41975 | 40001 ft | 481 kts | 258° |
| 2026-04-25 21:14 | 33.44797 | -122.49825 | 40001 ft | 481 kts | 258° |
| 2026-04-25 21:15 | 33.43392 | -122.57688 | 40003 ft | 481 kts | 258° |
| 2026-04-25 21:15 | 33.41994 | -122.65481 | 40002 ft | 481 kts | 258° |
| 2026-04-25 21:16 | 33.40581 | -122.73324 | 40003 ft | 481 kts | 258° |
| 2026-04-25 21:16 | 33.39165 | -122.81161 | 40001 ft | 481 kts | 258° |
| 2026-04-25 21:17 | 33.37745 | -122.88984 | 40001 ft | 481 kts | 258° |
| 2026-04-25 21:17 | 33.36319 | -122.96813 | 40002 ft | 481 kts | 258° |
| 2026-04-25 21:18 | 33.34896 | -123.04595 | 40003 ft | 481 kts | 258° |
| 2026-04-25 21:18 | 33.33458 | -123.12433 | 40002 ft | 481 kts | 257° |
| 2026-04-25 21:19 | 33.32018 | -123.20245 | 40001 ft | 481 kts | 257° |
| 2026-04-25 21:19 | 33.30580 | -123.28024 | 40000 ft | 481 kts | 257° |
| 2026-04-25 21:20 | 33.29374 | -123.34526 | 39997 ft | 481 kts | 257° |
| 2026-04-25 21:20 | 33.27678 | -123.43635 | 39998 ft | 481 kts | 257° |
| 2026-04-25 21:21 | 33.26218 | -123.51440 | 40002 ft | 481 kts | 257° |
| 2026-04-25 21:21 | 33.24752 | -123.59254 | 39999 ft | 481 kts | 257° |
| 2026-04-25 21:22 | 33.23282 | -123.67057 | 40001 ft | 481 kts | 257° |
| 2026-04-25 21:22 | 33.21809 | -123.74853 | 40001 ft | 481 kts | 257° |
| 2026-04-25 21:23 | 33.20331 | -123.82645 | 39997 ft | 481 kts | 257° |
| 2026-04-25 21:23 | 33.18854 | -123.90400 | 40002 ft | 481 kts | 257° |
| 2026-04-25 21:24 | 33.17365 | -123.98195 | 39999 ft | 481 kts | 257° |
| 2026-04-25 21:24 | 33.15869 | -124.05995 | 39997 ft | 481 kts | 257° |
| 2026-04-25 21:25 | 33.14378 | -124.13739 | 39999 ft | 481 kts | 257° |
| 2026-04-25 21:25 | 33.12875 | -124.21525 | 39997 ft | 481 kts | 257° |
| 2026-04-25 21:26 | 33.11364 | -124.29320 | 39999 ft | 481 kts | 257° |
| 2026-04-25 21:26 | 33.09852 | -124.37089 | 39999 ft | 481 kts | 257° |
| 2026-04-25 21:27 | 33.08341 | -124.44832 | 40002 ft | 481 kts | 257° |
| 2026-04-25 21:27 | 33.07428 | -124.52720 | 39997 ft | 480 kts | 271° |
| 2026-04-25 21:28 | 33.08091 | -124.60651 | 40003 ft | 480 kts | 278° |
| 2026-04-25 21:28 | 33.09129 | -124.68483 | 40001 ft | 481 kts | 279° |
| 2026-04-25 21:29 | 33.10230 | -124.76353 | 39999 ft | 481 kts | 279° |
| 2026-04-25 21:29 | 33.11303 | -124.84230 | 39998 ft | 481 kts | 279° |
| 2026-04-25 21:30 | 33.12351 | -124.92120 | 40002 ft | 481 kts | 279° |
| 2026-04-25 21:30 | 33.13213 | -124.98685 | 40001 ft | 481 kts | 279° |
| 2026-04-25 21:31 | 33.14418 | -125.07912 | 39999 ft | 481 kts | 279° |
| 2026-04-25 21:31 | 33.15441 | -125.15775 | 39997 ft | 481 kts | 278° |
| 2026-04-25 21:32 | 33.16463 | -125.23668 | 39997 ft | 481 kts | 278° |
| 2026-04-25 21:32 | 33.17481 | -125.31570 | 39999 ft | 481 kts | 278° |
| 2026-04-25 21:33 | 33.18494 | -125.39477 | 40001 ft | 481 kts | 278° |
| 2026-04-25 21:33 | 33.19495 | -125.47327 | 40002 ft | 481 kts | 278° |
| 2026-04-25 21:34 | 33.20498 | -125.55242 | 39999 ft | 481 kts | 278° |
| 2026-04-25 21:34 | 33.21496 | -125.63149 | 39999 ft | 481 kts | 278° |
| 2026-04-25 21:35 | 33.22488 | -125.71055 | 40001 ft | 481 kts | 278° |
| 2026-04-25 21:35 | 33.23475 | -125.78962 | 40001 ft | 481 kts | 278° |
| 2026-04-25 21:36 | 33.24452 | -125.86828 | 39997 ft | 481 kts | 278° |
| 2026-04-25 21:36 | 33.25428 | -125.94731 | 40000 ft | 481 kts | 278° |
| 2026-04-25 21:37 | 33.26239 | -126.01328 | 39998 ft | 481 kts | 278° |
| 2026-04-25 21:37 | 33.27371 | -126.10585 | 40001 ft | 481 kts | 278° |
| 2026-04-25 21:38 | 33.28328 | -126.18457 | 40000 ft | 481 kts | 278° |
| 2026-04-25 21:38 | 33.29285 | -126.26377 | 39998 ft | 481 kts | 278° |
| 2026-04-25 21:39 | 33.30237 | -126.34292 | 40001 ft | 481 kts | 278° |
| 2026-04-25 21:39 | 33.31183 | -126.42211 | 40002 ft | 481 kts | 278° |
| 2026-04-25 21:40 | 33.32127 | -126.50148 | 39999 ft | 481 kts | 278° |
| 2026-04-25 21:40 | 33.33059 | -126.58031 | 40001 ft | 481 kts | 278° |
| 2026-04-25 21:41 | 33.33991 | -126.65955 | 39998 ft | 481 kts | 278° |
| 2026-04-25 21:41 | 33.34919 | -126.73891 | 40002 ft | 481 kts | 278° |
| 2026-04-25 21:42 | 33.35842 | -126.81830 | 39997 ft | 481 kts | 278° |
| 2026-04-25 21:42 | 33.36759 | -126.89763 | 39999 ft | 481 kts | 278° |
| 2026-04-25 21:43 | 33.37665 | -126.97646 | 39999 ft | 481 kts | 278° |
| 2026-04-25 21:43 | 33.38573 | -127.05593 | 39999 ft | 481 kts | 277° |
| 2026-04-25 21:44 | 33.39476 | -127.13540 | 40001 ft | 481 kts | 277° |
| 2026-04-25 21:45 | 33.40816 | -127.25416 | 40001 ft | 481 kts | 277° |
| 2026-04-25 21:45 | 33.41705 | -127.33358 | 39999 ft | 481 kts | 277° |
| 2026-04-25 21:46 | 33.42589 | -127.41300 | 40001 ft | 481 kts | 277° |
| 2026-04-25 21:46 | 33.43465 | -127.49216 | 40003 ft | 481 kts | 277° |
| 2026-04-25 21:47 | 33.44341 | -127.57177 | 40002 ft | 481 kts | 277° |
| 2026-04-25 21:47 | 33.45209 | -127.65122 | 39999 ft | 481 kts | 277° |
| 2026-04-25 21:48 | 33.46074 | -127.73080 | 39998 ft | 481 kts | 277° |
| 2026-04-25 21:48 | 33.46927 | -127.80973 | 39999 ft | 481 kts | 277° |
| 2026-04-25 21:49 | 33.47781 | -127.88930 | 39997 ft | 481 kts | 277° |
| 2026-04-25 21:49 | 33.48630 | -127.96890 | 40003 ft | 481 kts | 277° |
| 2026-04-25 21:50 | 33.49473 | -128.04838 | 39997 ft | 481 kts | 277° |
| 2026-04-25 21:50 | 33.50308 | -128.12762 | 39999 ft | 481 kts | 277° |
| 2026-04-25 21:51 | 33.51142 | -128.20721 | 39999 ft | 481 kts | 277° |
| 2026-04-25 21:51 | 33.51970 | -128.28678 | 39998 ft | 482 kts | 277° |
| 2026-04-25 21:52 | 33.52797 | -128.36681 | 40000 ft | 484 kts | 277° |
| 2026-04-25 21:52 | 33.53621 | -128.44698 | 40001 ft | 485 kts | 277° |
| 2026-04-25 21:53 | 33.54301 | -128.51359 | 40000 ft | 485 kts | 277° |
| 2026-04-25 21:53 | 33.55117 | -128.59389 | 39998 ft | 485 kts | 277° |
| 2026-04-25 21:54 | 33.55927 | -128.67419 | 40000 ft | 485 kts | 277° |
| 2026-04-25 21:54 | 33.56731 | -128.75449 | 39998 ft | 485 kts | 277° |
| 2026-04-25 21:55 | 33.57390 | -128.83490 | 40000 ft | 484 kts | 270° |
| 2026-04-25 21:55 | 33.56438 | -128.91401 | 40000 ft | 483 kts | 251° |
| 2026-04-25 21:56 | 33.53288 | -128.98469 | 40004 ft | 483 kts | 232° |
| 2026-04-25 21:56 | 33.48951 | -129.04638 | 40001 ft | 485 kts | 228° |
| 2026-04-25 21:57 | 33.44419 | -129.10637 | 39998 ft | 485 kts | 228° |
| 2026-04-25 21:57 | 33.39883 | -129.16646 | 40003 ft | 485 kts | 228° |
| 2026-04-25 21:58 | 33.35414 | -129.22632 | 39999 ft | 485 kts | 228° |
| 2026-04-25 21:58 | 33.30928 | -129.28664 | 39999 ft | 485 kts | 229° |
| 2026-04-25 21:59 | 33.26445 | -129.34688 | 40002 ft | 485 kts | 228° |
| 2026-04-25 21:59 | 33.21950 | -129.40715 | 40002 ft | 485 kts | 228° |
| 2026-04-25 22:00 | 33.15226 | -129.49707 | 39998 ft | 485 kts | 228° |
| 2026-04-25 22:00 | 33.10728 | -129.55710 | 40001 ft | 485 kts | 228° |
| 2026-04-25 22:01 | 33.06218 | -129.61719 | 40000 ft | 485 kts | 228° |
| 2026-04-25 22:01 | 33.02469 | -129.66706 | 40002 ft | 485 kts | 228° |
| 2026-04-25 22:02 | 32.97230 | -129.73664 | 39998 ft | 485 kts | 228° |
| 2026-04-25 22:02 | 32.92719 | -129.79645 | 40000 ft | 485 kts | 228° |
| 2026-04-25 22:03 | 32.88209 | -129.85614 | 40002 ft | 485 kts | 228° |
| 2026-04-25 22:03 | 32.83695 | -129.91580 | 39998 ft | 485 kts | 228° |
| 2026-04-25 22:04 | 32.79169 | -129.97550 | 39996 ft | 485 kts | 228° |
| 2026-04-25 22:04 | 32.74677 | -130.03467 | 39999 ft | 485 kts | 228° |
| 2026-04-25 22:05 | 32.70155 | -130.09414 | 40001 ft | 485 kts | 228° |
| 2026-04-25 22:05 | 32.65621 | -130.15365 | 40001 ft | 485 kts | 228° |
| 2026-04-25 22:06 | 32.61077 | -130.21320 | 40001 ft | 485 kts | 228° |
| 2026-04-25 22:06 | 32.56576 | -130.27210 | 40001 ft | 485 kts | 228° |
| 2026-04-25 22:07 | 32.52802 | -130.32142 | 40001 ft | 485 kts | 228° |
| 2026-04-25 22:07 | 32.47495 | -130.39064 | 39998 ft | 485 kts | 228° |
| 2026-04-25 22:08 | 32.42952 | -130.44980 | 39998 ft | 485 kts | 228° |
| 2026-04-25 22:08 | 32.38436 | -130.50852 | 40000 ft | 485 kts | 228° |
| 2026-04-25 22:09 | 32.33878 | -130.56767 | 40000 ft | 485 kts | 228° |
| 2026-04-25 22:09 | 32.29322 | -130.62671 | 40002 ft | 485 kts | 227° |
| 2026-04-25 22:10 | 32.24774 | -130.68556 | 39999 ft | 485 kts | 227° |
| 2026-04-25 22:10 | 32.20219 | -130.74439 | 39998 ft | 485 kts | 227° |
| 2026-04-25 22:11 | 32.15685 | -130.80287 | 40002 ft | 485 kts | 227° |
| 2026-04-25 22:11 | 32.11126 | -130.86157 | 40003 ft | 485 kts | 227° |
| 2026-04-25 22:12 | 32.06565 | -130.92022 | 40001 ft | 485 kts | 227° |
| 2026-04-25 22:12 | 32.02766 | -130.96898 | 40001 ft | 485 kts | 227° |
| 2026-04-25 22:13 | 31.97428 | -131.03739 | 40001 ft | 485 kts | 227° |
| 2026-04-25 22:13 | 31.92852 | -131.09595 | 39997 ft | 485 kts | 227° |
| 2026-04-25 22:14 | 31.88276 | -131.15441 | 39999 ft | 485 kts | 227° |
| 2026-04-25 22:14 | 31.83723 | -131.21248 | 40000 ft | 485 kts | 227° |
| 2026-04-25 22:15 | 31.79132 | -131.27095 | 39999 ft | 485 kts | 227° |
| 2026-04-25 22:16 | 31.72290 | -131.35790 | 40000 ft | 485 kts | 227° |
| 2026-04-25 22:16 | 31.67693 | -131.41622 | 39998 ft | 485 kts | 227° |
| 2026-04-25 22:17 | 31.63100 | -131.47439 | 39998 ft | 485 kts | 227° |
| 2026-04-25 22:17 | 31.58521 | -131.53228 | 40001 ft | 485 kts | 227° |
| 2026-04-25 22:18 | 31.53925 | -131.59032 | 40002 ft | 485 kts | 227° |
| 2026-04-25 22:18 | 31.49357 | -131.64789 | 40001 ft | 485 kts | 227° |
| 2026-04-25 22:19 | 31.44754 | -131.70583 | 40002 ft | 485 kts | 227° |
| 2026-04-25 22:19 | 31.40155 | -131.76362 | 40001 ft | 485 kts | 227° |
| 2026-04-25 22:20 | 31.35554 | -131.82136 | 39997 ft | 485 kts | 227° |
| 2026-04-25 22:20 | 31.30945 | -131.87911 | 39998 ft | 485 kts | 227° |
| 2026-04-25 22:21 | 31.26362 | -131.93644 | 39999 ft | 485 kts | 227° |
| 2026-04-25 22:21 | 31.21748 | -131.99407 | 39998 ft | 485 kts | 227° |
| 2026-04-25 22:22 | 31.17130 | -132.05166 | 40002 ft | 485 kts | 227° |
| 2026-04-25 22:22 | 31.12567 | -132.10977 | 39999 ft | 485 kts | 232° |
| 2026-04-25 22:23 | 31.09189 | -132.17737 | 40001 ft | 483 kts | 248° |
| 2026-04-25 22:23 | 31.06828 | -132.25101 | 39999 ft | 484 kts | 251° |
| 2026-04-25 22:24 | 31.04684 | -132.32491 | 40003 ft | 485 kts | 251° |
| 2026-04-25 22:24 | 31.02527 | -132.39944 | 40002 ft | 485 kts | 251° |
| 2026-04-25 22:25 | 31.00335 | -132.47385 | 40001 ft | 485 kts | 251° |
| 2026-04-25 22:25 | 30.98121 | -132.54826 | 39999 ft | 485 kts | 251° |
| 2026-04-25 22:26 | 30.95920 | -132.62194 | 40002 ft | 485 kts | 251° |
| 2026-04-25 22:26 | 30.93700 | -132.69609 | 40001 ft | 485 kts | 251° |
| 2026-04-25 22:27 | 30.91479 | -132.77016 | 40000 ft | 485 kts | 251° |
| 2026-04-25 22:27 | 30.89247 | -132.84443 | 39997 ft | 485 kts | 251° |
| 2026-04-25 22:28 | 30.87011 | -132.91863 | 40001 ft | 485 kts | 251° |
| 2026-04-25 22:28 | 30.84775 | -132.99268 | 40003 ft | 485 kts | 251° |
| 2026-04-25 22:29 | 30.82535 | -133.06666 | 39997 ft | 485 kts | 251° |
| 2026-04-25 22:29 | 30.80309 | -133.14006 | 40001 ft | 485 kts | 250° |
| 2026-04-25 22:30 | 30.76931 | -133.25104 | 39998 ft | 485 kts | 250° |
| 2026-04-25 22:30 | 30.75057 | -133.31247 | 39999 ft | 485 kts | 250° |
| 2026-04-25 22:31 | 30.72416 | -133.39882 | 39999 ft | 485 kts | 250° |
| 2026-04-25 22:31 | 30.70152 | -133.47266 | 40003 ft | 485 kts | 250° |
| 2026-04-25 22:32 | 30.67883 | -133.54649 | 39998 ft | 485 kts | 250° |
| 2026-04-25 22:32 | 30.65612 | -133.62024 | 39999 ft | 485 kts | 250° |
| 2026-04-25 22:33 | 30.63350 | -133.69350 | 40001 ft | 485 kts | 250° |
| 2026-04-25 22:33 | 30.61069 | -133.76721 | 40002 ft | 485 kts | 250° |
| 2026-04-25 22:34 | 30.58782 | -133.84094 | 39997 ft | 485 kts | 250° |
| 2026-04-25 22:34 | 30.56491 | -133.91466 | 39999 ft | 485 kts | 250° |
| 2026-04-25 22:35 | 30.54215 | -133.98771 | 40003 ft | 485 kts | 250° |
| 2026-04-25 22:35 | 30.51918 | -134.06125 | 39999 ft | 485 kts | 250° |
| 2026-04-25 22:36 | 30.49618 | -134.13476 | 40003 ft | 485 kts | 250° |
| 2026-04-25 22:36 | 30.47314 | -134.20818 | 40001 ft | 485 kts | 250° |
| 2026-04-25 22:37 | 30.45003 | -134.28171 | 39998 ft | 485 kts | 250° |
| 2026-04-25 22:37 | 30.42689 | -134.35513 | 39998 ft | 485 kts | 250° |
| 2026-04-25 22:38 | 30.40387 | -134.42801 | 39998 ft | 485 kts | 250° |
| 2026-04-25 22:38 | 30.38069 | -134.50127 | 40001 ft | 485 kts | 250° |
| 2026-04-25 22:39 | 30.35738 | -134.57473 | 40003 ft | 485 kts | 250° |
| 2026-04-25 22:39 | 30.33410 | -134.64796 | 40001 ft | 485 kts | 250° |
| 2026-04-25 22:40 | 30.31089 | -134.72079 | 40001 ft | 485 kts | 250° |
| 2026-04-25 22:40 | 30.28755 | -134.79388 | 40001 ft | 485 kts | 250° |
| 2026-04-25 22:41 | 30.26410 | -134.86715 | 40001 ft | 485 kts | 250° |
| 2026-04-25 22:41 | 30.24065 | -134.94026 | 40000 ft | 485 kts | 250° |
| 2026-04-25 22:42 | 30.22112 | -135.00100 | 40000 ft | 485 kts | 250° |
| 2026-04-25 22:42 | 30.19756 | -135.07416 | 39999 ft | 485 kts | 250° |
| 2026-04-25 22:43 | 30.17399 | -135.14719 | 39999 ft | 485 kts | 250° |
| 2026-04-25 22:43 | 30.15040 | -135.22012 | 39997 ft | 485 kts | 249° |
| 2026-04-25 22:44 | 30.12685 | -135.29274 | 40001 ft | 485 kts | 249° |
| 2026-04-25 22:44 | 30.10308 | -135.36592 | 40000 ft | 485 kts | 249° |
| 2026-04-25 22:45 | 30.07951 | -135.43829 | 40002 ft | 485 kts | 249° |
| 2026-04-25 22:45 | 30.05573 | -135.51116 | 40003 ft | 485 kts | 249° |
| 2026-04-25 22:46 | 30.03189 | -135.58408 | 40000 ft | 485 kts | 249° |
| 2026-04-25 22:46 | 30.00812 | -135.65662 | 39998 ft | 485 kts | 249° |
| 2026-04-25 22:47 | 29.98421 | -135.72940 | 39998 ft | 485 kts | 249° |
| 2026-04-25 22:47 | 29.96029 | -135.80209 | 40002 ft | 485 kts | 249° |
| 2026-04-25 22:48 | 29.93629 | -135.87483 | 40001 ft | 485 kts | 249° |
| 2026-04-25 22:48 | 29.91245 | -135.94697 | 40000 ft | 485 kts | 249° |
| 2026-04-25 22:49 | 29.88832 | -136.01979 | 40002 ft | 485 kts | 249° |
| 2026-04-25 22:49 | 29.86420 | -136.09245 | 40001 ft | 485 kts | 249° |
| 2026-04-25 22:50 | 29.84006 | -136.16502 | 39998 ft | 485 kts | 249° |
| 2026-04-25 22:50 | 29.81606 | -136.23702 | 40002 ft | 485 kts | 249° |
| 2026-04-25 22:51 | 29.79181 | -136.30960 | 40003 ft | 485 kts | 249° |
| 2026-04-25 22:51 | 29.76752 | -136.38214 | 39999 ft | 485 kts | 249° |
| 2026-04-25 22:52 | 29.74323 | -136.45455 | 40001 ft | 485 kts | 249° |
| 2026-04-25 22:52 | 29.72301 | -136.51468 | 40003 ft | 485 kts | 249° |
| 2026-04-25 22:53 | 29.69470 | -136.59874 | 40001 ft | 485 kts | 249° |
| 2026-04-25 22:53 | 29.67028 | -136.67105 | 39997 ft | 485 kts | 249° |
| 2026-04-25 22:54 | 29.64581 | -136.74338 | 39998 ft | 485 kts | 249° |
| 2026-04-25 22:54 | 29.62133 | -136.81559 | 39997 ft | 485 kts | 249° |
| 2026-04-25 22:55 | 29.59695 | -136.88736 | 40001 ft | 485 kts | 249° |
| 2026-04-25 22:55 | 29.57237 | -136.95954 | 39997 ft | 485 kts | 249° |
| 2026-04-25 22:56 | 29.54778 | -137.03164 | 40001 ft | 485 kts | 249° |
| 2026-04-25 22:56 | 29.52313 | -137.10374 | 40000 ft | 485 kts | 249° |
| 2026-04-25 22:57 | 29.49843 | -137.17585 | 40000 ft | 485 kts | 249° |
| 2026-04-25 22:57 | 29.47370 | -137.24789 | 40001 ft | 485 kts | 249° |
| 2026-04-25 22:58 | 29.44906 | -137.31952 | 40001 ft | 485 kts | 248° |
| 2026-04-25 22:58 | 29.42427 | -137.39144 | 40002 ft | 485 kts | 248° |
| 2026-04-25 22:59 | 29.39944 | -137.46334 | 40000 ft | 485 kts | 248° |
| 2026-04-25 22:59 | 29.37452 | -137.53534 | 40001 ft | 485 kts | 248° |
| 2026-04-25 23:00 | 29.34962 | -137.60712 | 39998 ft | 485 kts | 248° |
| 2026-04-25 23:00 | 29.32467 | -137.67893 | 39999 ft | 485 kts | 248° |
| 2026-04-25 23:01 | 29.29985 | -137.75022 | 40000 ft | 485 kts | 248° |
| 2026-04-25 23:01 | 29.27482 | -137.82194 | 39998 ft | 485 kts | 248° |
| 2026-04-25 23:02 | 29.24976 | -137.89363 | 39998 ft | 485 kts | 248° |
| 2026-04-25 23:02 | 29.22467 | -137.96524 | 39997 ft | 485 kts | 248° |
| 2026-04-25 23:03 | 29.19950 | -138.03695 | 39999 ft | 485 kts | 248° |
| 2026-04-25 23:03 | 29.17447 | -138.10811 | 39999 ft | 485 kts | 248° |
| 2026-04-25 23:04 | 29.15336 | -138.16801 | 40002 ft | 485 kts | 248° |
| 2026-04-25 23:04 | 29.12402 | -138.25112 | 40002 ft | 485 kts | 248° |
| 2026-04-25 23:05 | 29.09866 | -138.32278 | 39999 ft | 485 kts | 248° |
| 2026-04-25 23:05 | 29.07347 | -138.39385 | 39998 ft | 485 kts | 248° |
| 2026-04-25 23:06 | 29.04805 | -138.46540 | 40000 ft | 485 kts | 248° |
| 2026-04-25 23:06 | 29.02263 | -138.53682 | 40001 ft | 485 kts | 248° |
| 2026-04-25 23:07 | 28.99713 | -138.60832 | 40001 ft | 485 kts | 248° |
| 2026-04-25 23:07 | 28.97183 | -138.67911 | 40000 ft | 485 kts | 248° |
| 2026-04-25 23:08 | 28.94631 | -138.75039 | 40002 ft | 485 kts | 248° |
| 2026-04-25 23:08 | 28.92073 | -138.82169 | 39999 ft | 485 kts | 248° |
| 2026-04-25 23:09 | 28.89510 | -138.89298 | 39997 ft | 485 kts | 248° |
| 2026-04-25 23:09 | 28.86961 | -138.96377 | 40000 ft | 485 kts | 248° |
| 2026-04-25 23:10 | 28.84390 | -139.03501 | 40000 ft | 485 kts | 248° |
| 2026-04-25 23:10 | 28.81819 | -139.10612 | 40001 ft | 485 kts | 248° |
| 2026-04-25 23:11 | 28.79245 | -139.17715 | 40002 ft | 485 kts | 248° |
| 2026-04-25 23:11 | 28.76681 | -139.24779 | 39999 ft | 485 kts | 248° |
| 2026-04-25 23:12 | 28.74091 | -139.31902 | 40000 ft | 485 kts | 248° |
| 2026-04-25 23:12 | 28.71520 | -139.38959 | 40001 ft | 485 kts | 248° |
| 2026-04-25 23:13 | 28.68927 | -139.46056 | 39997 ft | 485 kts | 247° |
| 2026-04-25 23:13 | 28.66326 | -139.53143 | 39997 ft | 485 kts | 247° |
| 2026-04-25 23:14 | 28.63723 | -139.60221 | 39996 ft | 485 kts | 247° |
| 2026-04-25 23:14 | 28.61112 | -139.67308 | 40001 ft | 485 kts | 247° |
| 2026-04-25 23:15 | 28.58515 | -139.74345 | 40000 ft | 485 kts | 247° |
| 2026-04-25 23:15 | 28.55899 | -139.81423 | 40003 ft | 485 kts | 247° |
| 2026-04-25 23:16 | 28.53279 | -139.88494 | 39998 ft | 485 kts | 247° |
| 2026-04-25 23:16 | 28.50670 | -139.95524 | 40000 ft | 485 kts | 247° |
| 2026-04-25 23:17 | 28.48045 | -140.02586 | 40003 ft | 485 kts | 247° |
| 2026-04-25 23:17 | 28.45415 | -140.09646 | 40000 ft | 485 kts | 247° |
| 2026-04-25 23:18 | 28.42782 | -140.16701 | 39999 ft | 485 kts | 247° |
| 2026-04-25 23:18 | 28.40141 | -140.23762 | 40001 ft | 485 kts | 247° |
| 2026-04-25 23:19 | 28.37519 | -140.30762 | 40000 ft | 485 kts | 247° |
| 2026-04-25 23:19 | 28.34875 | -140.37806 | 40000 ft | 485 kts | 247° |
| 2026-04-25 23:20 | 28.32229 | -140.44843 | 40000 ft | 485 kts | 247° |
| 2026-04-25 23:20 | 28.29575 | -140.51890 | 40000 ft | 485 kts | 247° |
| 2026-04-25 23:21 | 28.26917 | -140.58932 | 40001 ft | 485 kts | 247° |
| 2026-04-25 23:21 | 28.24272 | -140.65926 | 39999 ft | 485 kts | 247° |
| 2026-04-25 23:22 | 28.21611 | -140.72951 | 39998 ft | 485 kts | 247° |
| 2026-04-25 23:23 | 28.17625 | -140.83449 | 40001 ft | 485 kts | 246° |
| 2026-04-25 23:23 | 28.14947 | -140.90486 | 40000 ft | 485 kts | 246° |
| 2026-04-25 23:24 | 28.12271 | -140.97505 | 40002 ft | 485 kts | 246° |
| 2026-04-25 23:24 | 28.09591 | -141.04521 | 39997 ft | 485 kts | 246° |
| 2026-04-25 23:25 | 28.06926 | -141.11485 | 39998 ft | 485 kts | 246° |
| 2026-04-25 23:25 | 28.04242 | -141.18486 | 39998 ft | 485 kts | 246° |
| 2026-04-25 23:26 | 28.01553 | -141.25489 | 39999 ft | 485 kts | 246° |
| 2026-04-25 23:26 | 27.98862 | -141.32482 | 39997 ft | 485 kts | 246° |
| 2026-04-25 23:27 | 27.96167 | -141.39474 | 40002 ft | 485 kts | 246° |
| 2026-04-25 23:27 | 27.93481 | -141.46430 | 39999 ft | 485 kts | 246° |
| 2026-04-25 23:28 | 27.90780 | -141.53413 | 39998 ft | 485 kts | 246° |
| 2026-04-25 23:28 | 27.88071 | -141.60402 | 39999 ft | 485 kts | 246° |
| 2026-04-25 23:29 | 27.85364 | -141.67374 | 40001 ft | 485 kts | 246° |
| 2026-04-25 23:29 | 27.82648 | -141.74357 | 40001 ft | 485 kts | 246° |
| 2026-04-25 23:30 | 27.80393 | -141.80146 | 39997 ft | 485 kts | 246° |
| 2026-04-25 23:30 | 27.77226 | -141.88260 | 40000 ft | 485 kts | 246° |
| 2026-04-25 23:31 | 27.74946 | -141.94093 | 39998 ft | 485 kts | 246° |
| 2026-04-25 23:31 | 27.72216 | -142.01064 | 40001 ft | 485 kts | 246° |
| 2026-04-25 23:32 | 27.69505 | -142.07975 | 39999 ft | 485 kts | 246° |
| 2026-04-25 23:32 | 27.66769 | -142.14937 | 39998 ft | 485 kts | 246° |
| 2026-04-25 23:33 | 27.64027 | -142.21901 | 40001 ft | 485 kts | 246° |
| 2026-04-25 23:33 | 27.61288 | -142.28845 | 39997 ft | 485 kts | 246° |
| 2026-04-25 23:34 | 27.58559 | -142.35752 | 39999 ft | 485 kts | 246° |
| 2026-04-25 23:34 | 27.55811 | -142.42696 | 40001 ft | 485 kts | 246° |
| 2026-04-25 23:35 | 27.53055 | -142.49648 | 39999 ft | 485 kts | 246° |
| 2026-04-25 23:35 | 27.50300 | -142.56584 | 40001 ft | 485 kts | 246° |
| 2026-04-25 23:36 | 27.47564 | -142.63461 | 39999 ft | 485 kts | 246° |
| 2026-04-25 23:36 | 27.44803 | -142.70389 | 39999 ft | 485 kts | 246° |
| 2026-04-25 23:37 | 27.42036 | -142.77318 | 39999 ft | 485 kts | 246° |
| 2026-04-25 23:37 | 27.39269 | -142.84238 | 40001 ft | 485 kts | 246° |
| 2026-04-25 23:38 | 27.36499 | -142.91151 | 39999 ft | 485 kts | 246° |
| 2026-04-25 23:38 | 27.33722 | -142.98070 | 39998 ft | 485 kts | 246° |
| 2026-04-25 23:39 | 27.30959 | -143.04943 | 39999 ft | 485 kts | 246° |
| 2026-04-25 23:39 | 27.28178 | -143.11849 | 40001 ft | 485 kts | 245° |
| 2026-04-25 23:40 | 27.25392 | -143.18755 | 40001 ft | 485 kts | 245° |
| 2026-04-25 23:40 | 27.22603 | -143.25657 | 40002 ft | 485 kts | 245° |
| 2026-04-25 23:41 | 27.19811 | -143.32554 | 40002 ft | 485 kts | 245° |
| 2026-04-25 23:41 | 27.17032 | -143.39408 | 40003 ft | 485 kts | 245° |
| 2026-04-25 23:42 | 27.14228 | -143.46311 | 39998 ft | 485 kts | 245° |
| 2026-04-25 23:42 | 27.11427 | -143.53196 | 40002 ft | 485 kts | 245° |
| 2026-04-25 23:43 | 27.08619 | -143.60086 | 40001 ft | 485 kts | 245° |
| 2026-04-25 23:43 | 27.05826 | -143.66927 | 39997 ft | 485 kts | 245° |
| 2026-04-25 23:44 | 27.03010 | -143.73812 | 39998 ft | 485 kts | 245° |
| 2026-04-25 23:44 | 27.00192 | -143.80693 | 40002 ft | 485 kts | 245° |
| 2026-04-25 23:45 | 26.97374 | -143.87560 | 39996 ft | 485 kts | 245° |
| 2026-04-25 23:45 | 26.94568 | -143.94388 | 40000 ft | 485 kts | 245° |
| 2026-04-25 23:46 | 26.91743 | -144.01249 | 40000 ft | 485 kts | 245° |
| 2026-04-25 23:46 | 26.88911 | -144.08115 | 39997 ft | 485 kts | 245° |
| 2026-04-25 23:47 | 26.86077 | -144.14976 | 40000 ft | 485 kts | 245° |
| 2026-04-25 23:47 | 26.83259 | -144.21788 | 40000 ft | 485 kts | 245° |
| 2026-04-25 23:48 | 26.80421 | -144.28636 | 39998 ft | 485 kts | 245° |
| 2026-04-25 23:48 | 26.77573 | -144.35496 | 39999 ft | 485 kts | 245° |
| 2026-04-25 23:49 | 26.74747 | -144.42292 | 40003 ft | 485 kts | 245° |
| 2026-04-25 23:49 | 26.71894 | -144.49141 | 39998 ft | 485 kts | 245° |
| 2026-04-25 23:50 | 26.69038 | -144.55987 | 40001 ft | 485 kts | 245° |
| 2026-04-25 23:50 | 26.66203 | -144.62771 | 39997 ft | 485 kts | 245° |
| 2026-04-25 23:51 | 26.63345 | -144.69599 | 39999 ft | 485 kts | 245° |
| 2026-04-25 23:51 | 26.60481 | -144.76431 | 40002 ft | 485 kts | 245° |
| 2026-04-25 23:52 | 26.57618 | -144.83247 | 40003 ft | 485 kts | 245° |
| 2026-04-25 23:52 | 26.54748 | -144.90069 | 39999 ft | 485 kts | 245° |
| 2026-04-25 23:53 | 26.51878 | -144.96881 | 40001 ft | 485 kts | 245° |
| 2026-04-25 23:53 | 26.49006 | -145.03688 | 40000 ft | 485 kts | 245° |
| 2026-04-25 23:54 | 26.46129 | -145.10494 | 40001 ft | 485 kts | 245° |
| 2026-04-25 23:54 | 26.43267 | -145.17254 | 40001 ft | 485 kts | 245° |
| 2026-04-25 23:55 | 26.40379 | -145.24065 | 40001 ft | 485 kts | 245° |
| 2026-04-25 23:55 | 26.37488 | -145.30870 | 40000 ft | 485 kts | 245° |
| 2026-04-25 23:56 | 26.34599 | -145.37662 | 40001 ft | 485 kts | 245° |
| 2026-04-25 23:56 | 26.31720 | -145.44419 | 40000 ft | 485 kts | 245° |
| 2026-04-25 23:57 | 26.28818 | -145.51217 | 40001 ft | 485 kts | 244° |
| 2026-04-25 23:57 | 26.25915 | -145.58009 | 40001 ft | 485 kts | 244° |
| 2026-04-25 23:58 | 26.23014 | -145.64784 | 40002 ft | 485 kts | 244° |
| 2026-04-25 23:58 | 26.20128 | -145.71513 | 39999 ft | 485 kts | 244° |
| 2026-04-25 23:59 | 26.17220 | -145.78284 | 40002 ft | 485 kts | 244° |
| 2026-04-25 23:59 | 26.14304 | -145.85062 | 40000 ft | 485 kts | 244° |
| 2026-04-26 00:00 | 26.11384 | -145.91840 | 40003 ft | 485 kts | 244° |
| 2026-04-26 00:00 | 26.08466 | -145.98601 | 40001 ft | 485 kts | 244° |
| 2026-04-26 00:01 | 26.05561 | -146.05321 | 40000 ft | 485 kts | 244° |
| 2026-04-26 00:01 | 26.02635 | -146.12081 | 40001 ft | 485 kts | 244° |
| 2026-04-26 00:02 | 25.99707 | -146.18836 | 40001 ft | 485 kts | 244° |
| 2026-04-26 00:02 | 25.96774 | -146.25600 | 40000 ft | 485 kts | 244° |
| 2026-04-26 00:03 | 25.93864 | -146.32304 | 40002 ft | 485 kts | 244° |
| 2026-04-26 00:03 | 25.90923 | -146.39067 | 40001 ft | 485 kts | 244° |
| 2026-04-26 00:04 | 25.87998 | -146.45784 | 40002 ft | 485 kts | 244° |
| 2026-04-26 00:04 | 25.85059 | -146.52520 | 39999 ft | 485 kts | 244° |
| 2026-04-26 00:05 | 25.82116 | -146.59257 | 39999 ft | 485 kts | 244° |
| 2026-04-26 00:05 | 25.79167 | -146.65997 | 40001 ft | 485 kts | 244° |
| 2026-04-26 00:06 | 25.76226 | -146.72707 | 40002 ft | 485 kts | 244° |
| 2026-04-26 00:06 | 25.73271 | -146.79440 | 39998 ft | 485 kts | 244° |
| 2026-04-26 00:07 | 25.70314 | -146.86166 | 40002 ft | 485 kts | 244° |
| 2026-04-26 00:07 | 25.67374 | -146.92845 | 40000 ft | 485 kts | 244° |
| 2026-04-26 00:08 | 25.64413 | -146.99561 | 39999 ft | 485 kts | 244° |
| 2026-04-26 00:08 | 25.61448 | -147.06273 | 40000 ft | 485 kts | 244° |
| 2026-04-26 00:09 | 25.58479 | -147.12986 | 39998 ft | 485 kts | 244° |
| 2026-04-26 00:09 | 25.55507 | -147.19695 | 40002 ft | 485 kts | 244° |
| 2026-04-26 00:10 | 25.52531 | -147.26403 | 39999 ft | 485 kts | 244° |
| 2026-04-26 00:10 | 25.49572 | -147.33064 | 39997 ft | 485 kts | 244° |
| 2026-04-26 00:11 | 25.46592 | -147.39761 | 40000 ft | 485 kts | 244° |
| 2026-04-26 00:11 | 25.43611 | -147.46449 | 40000 ft | 485 kts | 244° |
| 2026-04-26 00:12 | 25.40639 | -147.53107 | 40001 ft | 485 kts | 244° |
| 2026-04-26 00:12 | 25.37650 | -147.59795 | 40001 ft | 485 kts | 244° |
| 2026-04-26 00:13 | 25.34655 | -147.66484 | 40000 ft | 485 kts | 244° |
| 2026-04-26 00:13 | 25.31662 | -147.73160 | 39998 ft | 485 kts | 244° |
| 2026-04-26 00:14 | 25.28664 | -147.79836 | 39998 ft | 485 kts | 244° |
| 2026-04-26 00:14 | 25.25681 | -147.86469 | 40000 ft | 485 kts | 244° |
| 2026-04-26 00:15 | 25.22675 | -147.93143 | 40002 ft | 485 kts | 244° |
| 2026-04-26 00:15 | 25.19668 | -147.99811 | 39998 ft | 485 kts | 243° |
| 2026-04-26 00:16 | 25.16656 | -148.06477 | 40001 ft | 485 kts | 243° |
| 2026-04-26 00:16 | 25.13644 | -148.13135 | 40002 ft | 485 kts | 243° |
| 2026-04-26 00:17 | 25.10643 | -148.19761 | 40003 ft | 485 kts | 243° |
| 2026-04-26 00:17 | 25.07625 | -148.26412 | 40001 ft | 485 kts | 243° |
| 2026-04-26 00:18 | 25.04606 | -148.33056 | 39996 ft | 485 kts | 243° |
| 2026-04-26 00:18 | 25.01580 | -148.39706 | 40003 ft | 485 kts | 243° |
| 2026-04-26 00:19 | 24.99063 | -148.45229 | 39998 ft | 485 kts | 243° |
| 2026-04-26 00:19 | 24.95535 | -148.52959 | 40001 ft | 485 kts | 243° |
| 2026-04-26 00:20 | 24.92992 | -148.58525 | 39998 ft | 485 kts | 243° |
| 2026-04-26 00:20 | 24.89976 | -148.65114 | 40002 ft | 485 kts | 243° |
| 2026-04-26 00:21 | 24.86933 | -148.71754 | 40000 ft | 485 kts | 243° |
| 2026-04-26 00:21 | 24.83892 | -148.78382 | 40000 ft | 485 kts | 243° |
| 2026-04-26 00:22 | 24.80842 | -148.85016 | 40003 ft | 485 kts | 243° |
| 2026-04-26 00:22 | 24.77814 | -148.91594 | 40000 ft | 485 kts | 243° |
| 2026-04-26 00:23 | 24.74759 | -148.98223 | 40002 ft | 485 kts | 243° |
| 2026-04-26 00:23 | 24.71706 | -149.04835 | 40002 ft | 485 kts | 243° |
| 2026-04-26 00:24 | 24.68648 | -149.11451 | 40002 ft | 485 kts | 243° |
| 2026-04-26 00:24 | 24.65587 | -149.18062 | 40000 ft | 485 kts | 243° |
| 2026-04-26 00:25 | 24.62543 | -149.24628 | 39998 ft | 485 kts | 243° |
| 2026-04-26 00:25 | 24.59480 | -149.31227 | 40001 ft | 485 kts | 243° |
| 2026-04-26 00:26 | 24.56414 | -149.37822 | 40003 ft | 485 kts | 243° |
| 2026-04-26 00:26 | 24.53341 | -149.44420 | 40001 ft | 485 kts | 243° |
| 2026-04-26 00:27 | 24.50266 | -149.51017 | 40001 ft | 485 kts | 243° |
| 2026-04-26 00:27 | 24.47191 | -149.57602 | 40000 ft | 485 kts | 243° |
| 2026-04-26 00:28 | 24.44129 | -149.64149 | 40001 ft | 485 kts | 243° |
| 2026-04-26 00:28 | 24.41045 | -149.70737 | 39999 ft | 485 kts | 243° |
| 2026-04-26 00:29 | 24.37960 | -149.77315 | 39998 ft | 485 kts | 243° |
| 2026-04-26 00:29 | 24.34872 | -149.83892 | 40001 ft | 485 kts | 243° |
| 2026-04-26 00:30 | 24.31781 | -149.90465 | 40001 ft | 485 kts | 243° |
| 2026-04-26 00:30 | 24.28688 | -149.97033 | 40002 ft | 485 kts | 243° |
| 2026-04-26 00:31 | 24.25591 | -150.03601 | 40001 ft | 485 kts | 243° |
| 2026-04-26 00:31 | 24.22514 | -150.10118 | 40000 ft | 485 kts | 243° |
| 2026-04-26 00:32 | 24.19405 | -150.16692 | 40001 ft | 485 kts | 243° |
| 2026-04-26 00:32 | 24.14742 | -150.26536 | 40000 ft | 485 kts | 243° |
| 2026-04-26 00:33 | 24.11655 | -150.33041 | 39997 ft | 485 kts | 243° |
| 2026-04-26 00:33 | 24.08546 | -150.39586 | 39998 ft | 485 kts | 243° |
| 2026-04-26 00:34 | 24.05429 | -150.46136 | 40000 ft | 485 kts | 243° |
| 2026-04-26 00:34 | 24.02310 | -150.52682 | 40001 ft | 485 kts | 243° |
| 2026-04-26 00:35 | 23.99190 | -150.59222 | 39996 ft | 485 kts | 242° |
| 2026-04-26 00:35 | 23.96066 | -150.65761 | 39999 ft | 485 kts | 242° |
| 2026-04-26 00:36 | 23.92959 | -150.72254 | 40001 ft | 485 kts | 242° |
| 2026-04-26 00:36 | 23.89822 | -150.78801 | 40001 ft | 485 kts | 242° |
| 2026-04-26 00:37 | 23.86707 | -150.85295 | 39999 ft | 485 kts | 242° |
| 2026-04-26 00:37 | 23.83571 | -150.91824 | 39997 ft | 485 kts | 242° |
| 2026-04-26 00:38 | 23.80433 | -150.98347 | 40001 ft | 485 kts | 242° |
| 2026-04-26 00:38 | 23.77294 | -151.04865 | 40001 ft | 485 kts | 242° |
| 2026-04-26 00:39 | 23.74151 | -151.11382 | 40001 ft | 485 kts | 242° |
| 2026-04-26 00:39 | 23.71009 | -151.17887 | 39999 ft | 485 kts | 242° |
| 2026-04-26 00:40 | 23.67880 | -151.24356 | 40002 ft | 485 kts | 242° |
| 2026-04-26 00:40 | 23.64730 | -151.30862 | 40002 ft | 485 kts | 242° |
| 2026-04-26 00:41 | 23.61580 | -151.37356 | 39999 ft | 485 kts | 242° |
| 2026-04-26 00:41 | 23.58427 | -151.43852 | 39998 ft | 485 kts | 242° |
| 2026-04-26 00:42 | 23.55262 | -151.50359 | 40001 ft | 485 kts | 242° |
| 2026-04-26 00:42 | 23.52121 | -151.56811 | 40001 ft | 485 kts | 242° |
| 2026-04-26 00:43 | 23.48953 | -151.63309 | 40002 ft | 485 kts | 242° |
| 2026-04-26 00:43 | 23.45782 | -151.69805 | 39998 ft | 485 kts | 242° |
| 2026-04-26 00:44 | 23.42630 | -151.76252 | 39997 ft | 485 kts | 242° |
| 2026-04-26 00:44 | 23.39454 | -151.82741 | 39999 ft | 485 kts | 242° |
| 2026-04-26 00:45 | 23.36280 | -151.89217 | 39997 ft | 485 kts | 242° |
| 2026-04-26 00:45 | 23.33100 | -151.95696 | 40003 ft | 485 kts | 242° |
| 2026-04-26 00:46 | 23.29922 | -152.02164 | 40001 ft | 485 kts | 242° |
| 2026-04-26 00:46 | 23.26759 | -152.08590 | 40002 ft | 485 kts | 242° |
| 2026-04-26 00:47 | 23.23577 | -152.15050 | 40001 ft | 485 kts | 242° |
| 2026-04-26 00:47 | 23.20388 | -152.21514 | 40002 ft | 485 kts | 242° |
| 2026-04-26 00:48 | 23.17196 | -152.27976 | 39996 ft | 485 kts | 242° |
| 2026-04-26 00:48 | 23.14002 | -152.34432 | 39997 ft | 485 kts | 242° |
| 2026-04-26 00:49 | 23.10823 | -152.40851 | 40001 ft | 485 kts | 242° |
| 2026-04-26 00:49 | 23.07624 | -152.47302 | 39999 ft | 485 kts | 242° |
| 2026-04-26 00:50 | 23.04423 | -152.53747 | 40001 ft | 485 kts | 242° |
| 2026-04-26 00:50 | 23.01214 | -152.60185 | 39998 ft | 485 kts | 242° |
| 2026-04-26 00:51 | 22.97986 | -152.66620 | 40002 ft | 485 kts | 242° |
| 2026-04-26 00:51 | 22.94781 | -152.73003 | 39999 ft | 485 kts | 242° |
| 2026-04-26 00:52 | 22.91549 | -152.79433 | 40002 ft | 485 kts | 241° |
| 2026-04-26 00:52 | 22.88319 | -152.85852 | 40002 ft | 485 kts | 241° |
| 2026-04-26 00:53 | 22.85079 | -152.92284 | 40002 ft | 485 kts | 241° |
| 2026-04-26 00:53 | 22.81841 | -152.98703 | 40001 ft | 485 kts | 241° |
| 2026-04-26 00:54 | 22.78618 | -153.05084 | 40001 ft | 485 kts | 241° |
| 2026-04-26 00:54 | 22.75375 | -153.11496 | 39999 ft | 485 kts | 241° |
| 2026-04-26 00:55 | 22.72153 | -153.17859 | 39998 ft | 485 kts | 241° |
| 2026-04-26 00:55 | 22.68898 | -153.24281 | 40001 ft | 485 kts | 241° |
| 2026-04-26 00:56 | 22.65644 | -153.30689 | 40000 ft | 485 kts | 241° |
| 2026-04-26 00:56 | 22.62413 | -153.37047 | 39997 ft | 485 kts | 241° |
| 2026-04-26 00:57 | 22.59157 | -153.43445 | 39998 ft | 485 kts | 241° |
| 2026-04-26 00:57 | 22.55902 | -153.49834 | 40001 ft | 485 kts | 241° |
| 2026-04-26 00:58 | 22.52640 | -153.56227 | 40003 ft | 485 kts | 241° |
| 2026-04-26 00:58 | 22.49393 | -153.62583 | 40001 ft | 485 kts | 241° |
| 2026-04-26 00:59 | 22.46133 | -153.68958 | 39998 ft | 485 kts | 241° |
| 2026-04-26 00:59 | 22.42867 | -153.75335 | 40001 ft | 485 kts | 241° |
| 2026-04-26 01:00 | 22.39594 | -153.81721 | 39999 ft | 485 kts | 241° |
| 2026-04-26 01:00 | 22.36992 | -153.88418 | 40001 ft | 484 kts | 257° |
| 2026-04-26 01:01 | 22.36466 | -153.95603 | 40003 ft | 483 kts | 271° |
| 2026-04-26 01:01 | 22.36637 | -154.02870 | 40000 ft | 484 kts | 271° |
| 2026-04-26 01:02 | 22.36809 | -154.10170 | 40000 ft | 484 kts | 271° |
| 2026-04-26 01:02 | 22.36963 | -154.17413 | 40000 ft | 484 kts | 271° |
| 2026-04-26 01:03 | 22.37111 | -154.24714 | 40000 ft | 484 kts | 271° |
| 2026-04-26 01:03 | 22.37254 | -154.31965 | 40000 ft | 484 kts | 271° |
| 2026-04-26 01:04 | 22.37393 | -154.39242 | 40000 ft | 484 kts | 271° |
| 2026-04-26 01:04 | 22.37529 | -154.46533 | 40000 ft | 484 kts | 271° |
| 2026-04-26 01:05 | 22.37662 | -154.53813 | 40000 ft | 484 kts | 271° |
| 2026-04-26 01:05 | 22.37791 | -154.61043 | 40000 ft | 484 kts | 271° |
| 2026-04-26 01:06 | 22.37917 | -154.68329 | 40000 ft | 484 kts | 271° |
| 2026-04-26 01:06 | 22.38020 | -154.74404 | 40000 ft | 484 kts | 271° |
| 2026-04-26 01:07 | 22.38159 | -154.82874 | 40000 ft | 484 kts | 271° |
| 2026-04-26 01:07 | 22.38276 | -154.90148 | 40000 ft | 484 kts | 271° |
| 2026-04-26 01:08 | 22.38370 | -154.96206 | 40000 ft | 484 kts | 271° |
| 2026-04-26 01:08 | 22.38481 | -155.03489 | 40000 ft | 484 kts | 271° |
| 2026-04-26 01:09 | 22.38588 | -155.10773 | 40000 ft | 484 kts | 271° |
| 2026-04-26 01:09 | 22.38692 | -155.18059 | 40000 ft | 484 kts | 271° |
| 2026-04-26 01:10 | 22.38793 | -155.25339 | 40000 ft | 484 kts | 271° |
| 2026-04-26 01:10 | 22.38890 | -155.32571 | 40000 ft | 484 kts | 271° |
| 2026-04-26 01:11 | 22.38984 | -155.39853 | 40000 ft | 484 kts | 271° |
| 2026-04-26 01:11 | 22.39075 | -155.47140 | 40001 ft | 484 kts | 271° |
| 2026-04-26 01:12 | 22.39163 | -155.54427 | 40000 ft | 484 kts | 271° |
| 2026-04-26 01:12 | 22.39247 | -155.61710 | 40000 ft | 484 kts | 270° |
| 2026-04-26 01:13 | 22.39328 | -155.68994 | 40000 ft | 484 kts | 270° |
| 2026-04-26 01:13 | 22.39406 | -155.76239 | 40001 ft | 484 kts | 270° |
| 2026-04-26 01:14 | 22.39481 | -155.83518 | 40000 ft | 484 kts | 270° |
| 2026-04-26 01:14 | 22.39553 | -155.90809 | 40000 ft | 484 kts | 270° |
| 2026-04-26 01:15 | 22.39621 | -155.98093 | 40000 ft | 484 kts | 270° |
| 2026-04-26 01:15 | 22.39685 | -156.05331 | 40000 ft | 484 kts | 270° |
| 2026-04-26 01:16 | 22.39747 | -156.12620 | 40000 ft | 484 kts | 270° |
| 2026-04-26 01:16 | 22.39581 | -156.19896 | 40000 ft | 484 kts | 262° |
| 2026-04-26 01:17 | 22.38836 | -156.23450 | 40001 ft | 483 kts | 251° |
| 2026-04-26 01:17 | 22.37495 | -156.26777 | 39999 ft | 483 kts | 240° |
| 2026-04-26 01:17 | 22.33493 | -156.32598 | 40000 ft | 484 kts | 230° |
| 2026-04-26 01:18 | 22.29181 | -156.38156 | 39999 ft | 485 kts | 230° |
| 2026-04-26 01:18 | 22.24862 | -156.43748 | 39998 ft | 485 kts | 230° |
| 2026-04-26 01:19 | 22.20571 | -156.49318 | 39999 ft | 485 kts | 230° |
| 2026-04-26 01:19 | 22.16254 | -156.54922 | 40001 ft | 485 kts | 230° |
| 2026-04-26 01:20 | 22.11939 | -156.60520 | 39999 ft | 485 kts | 230° |
| 2026-04-26 01:20 | 22.07621 | -156.66116 | 39999 ft | 485 kts | 230° |
| 2026-04-26 01:21 | 22.03298 | -156.71712 | 39999 ft | 485 kts | 230° |
| 2026-04-26 01:21 | 21.99005 | -156.77264 | 39999 ft | 485 kts | 230° |
| 2026-04-26 01:22 | 21.94681 | -156.82851 | 40000 ft | 485 kts | 230° |
| 2026-04-26 01:22 | 21.90356 | -156.88433 | 39999 ft | 485 kts | 230° |
| 2026-04-26 01:23 | 21.86029 | -156.94011 | 40003 ft | 485 kts | 230° |
| 2026-04-26 01:23 | 21.81701 | -156.99591 | 40002 ft | 485 kts | 230° |
| 2026-04-26 01:24 | 21.77379 | -157.05162 | 39998 ft | 485 kts | 230° |
| 2026-04-26 01:24 | 21.73074 | -157.10706 | 40001 ft | 485 kts | 230° |
| 2026-04-26 01:25 | 21.68744 | -157.16277 | 39998 ft | 485 kts | 230° |
| 2026-04-26 01:25 | 21.64435 | -157.21815 | 40002 ft | 485 kts | 230° |
| 2026-04-26 01:26 | 21.60104 | -157.27375 | 40002 ft | 485 kts | 230° |
| 2026-04-26 01:26 | 21.55767 | -157.32937 | 40002 ft | 485 kts | 230° |
| 2026-04-26 01:27 | 21.51433 | -157.38491 | 39999 ft | 485 kts | 230° |
| 2026-04-26 01:27 | 21.47092 | -157.44046 | 40001 ft | 485 kts | 230° |
| 2026-04-26 01:28 | 21.42779 | -157.49561 | 40001 ft | 485 kts | 230° |
| 2026-04-26 01:28 | 21.38436 | -157.55107 | 40001 ft | 485 kts | 230° |
| 2026-04-26 01:29 | 21.34089 | -157.60650 | 40001 ft | 485 kts | 230° |
| 2026-04-26 01:29 | 21.29737 | -157.66192 | 39998 ft | 485 kts | 230° |
| 2026-04-26 01:30 | 21.25671 | -157.71886 | 40000 ft | 484 kts | 245° |
| 2026-04-26 01:30 | 21.24604 | -157.75285 | 40000 ft | 482 kts | 261° |
| 2026-04-26 01:30 | 21.24293 | -157.78852 | 39999 ft | 481 kts | 267° |
| 2026-04-26 01:31 | 21.23800 | -157.86043 | 40001 ft | 484 kts | 264° |
| 2026-04-26 01:31 | 21.22932 | -157.93200 | 40002 ft | 484 kts | 262° |
| 2026-04-26 01:32 | 21.21906 | -158.00342 | 39999 ft | 484 kts | 261° |
| 2026-04-26 01:32 | 21.20815 | -158.07420 | 39993 ft | 484 kts | 269° |
| 2026-04-26 01:33 | 21.21164 | -158.10992 | 40000 ft | 482 kts | 285° |
| 2026-04-26 01:33 | 21.22400 | -158.14320 | 40002 ft | 481 kts | 301° |
| 2026-04-26 01:33 | 21.24425 | -158.17154 | 40000 ft | 481 kts | 316° |
| 2026-04-26 01:33 | 21.27100 | -158.19299 | 40000 ft | 481 kts | 332° |
| 2026-04-26 01:34 | 21.30215 | -158.20585 | 40003 ft | 482 kts | 348° |
| 2026-04-26 01:34 | 21.33547 | -158.20920 | 39997 ft | 482 kts | 3° |
| 2026-04-26 01:34 | 21.36838 | -158.20277 | 39998 ft | 483 kts | 19° |
| 2026-04-26 01:34 | 21.39857 | -158.18698 | 40001 ft | 483 kts | 35° |
| 2026-04-26 01:35 | 21.42361 | -158.16307 | 40001 ft | 484 kts | 50° |
| 2026-04-26 01:35 | 21.44175 | -158.13274 | 39998 ft | 484 kts | 66° |
| 2026-04-26 01:35 | 21.45154 | -158.09871 | 40001 ft | 484 kts | 82° |
| 2026-04-26 01:35 | 21.45249 | -158.06263 | 40000 ft | 486 kts | 97° |
| 2026-04-26 01:36 | 21.44426 | -158.02728 | 40002 ft | 486 kts | 113° |
| 2026-04-26 01:36 | 21.42763 | -157.99588 | 40003 ft | 486 kts | 129° |
| 2026-04-26 01:36 | 21.40367 | -157.97037 | 40000 ft | 485 kts | 144° |
| 2026-04-26 01:37 | 21.34645 | -157.93332 | 39999 ft | 485 kts | 139° |
| 2026-04-26 01:37 | 21.32364 | -157.90673 | 40002 ft | 485 kts | 124° |
| 2026-04-26 01:37 | 21.30654 | -157.87551 | 40005 ft | 485 kts | 121° |
| 2026-04-26 01:37 | 21.28577 | -157.84709 | 39999 ft | 485 kts | 137° |
| 2026-04-26 01:38 | 21.25847 | -157.82588 | 40001 ft | 484 kts | 153° |
| 2026-04-26 01:38 | 21.22706 | -157.81344 | 39998 ft | 483 kts | 169° |
| 2026-04-26 01:38 | 21.19374 | -157.81054 | 40000 ft | 482 kts | 185° |
| 2026-04-26 01:38 | 21.16085 | -157.81741 | 39997 ft | 482 kts | 200° |
| 2026-04-26 01:39 | 21.13135 | -157.83327 | 39999 ft | 481 kts | 216° |
| 2026-04-26 01:39 | 21.10667 | -157.85730 | 40001 ft | 481 kts | 231° |
| 2026-04-26 01:39 | 21.08725 | -157.88647 | 39999 ft | 482 kts | 234° |
| 2026-04-26 01:39 | 21.06431 | -157.91265 | 40001 ft | 482 kts | 219° |
| 2026-04-26 01:40 | 21.03599 | -157.93156 | 39998 ft | 482 kts | 203° |
| 2026-04-26 01:40 | 21.00387 | -157.94166 | 39999 ft | 481 kts | 187° |
| 2026-04-26 01:40 | 20.97039 | -157.94356 | 40000 ft | 482 kts | 180° |
| 2026-04-26 01:41 | 20.90296 | -157.94240 | 40000 ft | 485 kts | 179° |
| 2026-04-26 01:41 | 20.83577 | -157.94173 | 40000 ft | 485 kts | 180° |
| 2026-04-26 01:42 | 20.76817 | -157.94152 | 40001 ft | 485 kts | 180° |
| 2026-04-26 01:42 | 20.70091 | -157.94146 | 40000 ft | 485 kts | 180° |
| 2026-04-26 01:43 | 20.63329 | -157.94013 | 39998 ft | 485 kts | 174° |
| 2026-04-26 01:43 | 20.56828 | -157.92160 | 40000 ft | 485 kts | 154° |
| 2026-04-26 01:43 | 20.53918 | -157.90333 | 39998 ft | 485 kts | 143° |
| 2026-04-26 01:44 | 20.51366 | -157.87989 | 40000 ft | 485 kts | 134° |
| 2026-04-26 01:44 | 20.47556 | -157.82136 | 40002 ft | 485 kts | 115° |
| 2026-04-26 01:45 | 20.45719 | -157.75233 | 40000 ft | 486 kts | 95° |
| 2026-04-26 01:45 | 20.46155 | -157.68087 | 40000 ft | 486 kts | 75° |
| 2026-04-26 01:46 | 20.48836 | -157.61501 | 40000 ft | 485 kts | 56° |
| 2026-04-26 01:46 | 20.53415 | -157.56250 | 40000 ft | 485 kts | 36° |
| 2026-04-26 01:47 | 20.59327 | -157.52948 | 40000 ft | 484 kts | 17° |
| 2026-04-26 01:47 | 20.65962 | -157.52035 | 39999 ft | 483 kts | 353° |
| 2026-04-26 01:47 | 20.69222 | -157.52884 | 40001 ft | 481 kts | 337° |
| 2026-04-26 01:48 | 20.72127 | -157.54629 | 39999 ft | 480 kts | 321° |
| 2026-04-26 01:48 | 20.74477 | -157.57138 | 40001 ft | 480 kts | 306° |
| 2026-04-26 01:48 | 20.76297 | -157.60132 | 40000 ft | 480 kts | 302° |
| 2026-04-26 01:49 | 20.80304 | -157.65872 | 40000 ft | 483 kts | 311° |
| 2026-04-26 01:49 | 20.84904 | -157.71062 | 40001 ft | 484 kts | 315° |
| 2026-04-26 01:50 | 20.89747 | -157.76070 | 40003 ft | 484 kts | 316° |
| 2026-04-26 01:50 | 20.94660 | -157.81020 | 40003 ft | 484 kts | 316° |
| 2026-04-26 01:51 | 20.99553 | -157.85916 | 39999 ft | 484 kts | 317° |
| 2026-04-26 01:51 | 21.04479 | -157.90839 | 39999 ft | 484 kts | 317° |
| 2026-04-26 01:52 | 21.09808 | -157.95221 | 39999 ft | 483 kts | 336° |
| 2026-04-26 01:52 | 21.12982 | -157.96224 | 40001 ft | 482 kts | 352° |
| 2026-04-26 01:52 | 21.16327 | -157.96275 | 40000 ft | 481 kts | 8° |
| 2026-04-26 01:52 | 21.19559 | -157.95354 | 40000 ft | 482 kts | 24° |
| 2026-04-26 01:53 | 21.22437 | -157.93531 | 39998 ft | 482 kts | 39° |
| 2026-04-26 01:53 | 21.24754 | -157.90937 | 40001 ft | 483 kts | 55° |
| 2026-04-26 01:53 | 21.26329 | -157.87771 | 40000 ft | 483 kts | 71° |
| 2026-04-26 01:53 | 21.27066 | -157.84265 | 40004 ft | 483 kts | 84° |
| 2026-04-26 01:54 | 21.27278 | -157.81878 | 40000 ft | 484 kts | 85° |
| 2026-04-26 01:54 | 21.27681 | -157.74651 | 39999 ft | 487 kts | 90° |
| 2026-04-26 01:55 | 21.26569 | -157.66332 | 40003 ft | 486 kts | 109° |
| 2026-04-26 01:55 | 21.24091 | -157.60938 | 40002 ft | 485 kts | 125° |
| 2026-04-26 01:56 | 21.19420 | -157.55759 | 40001 ft | 485 kts | 144° |
| 2026-04-26 01:56 | 21.13420 | -157.52508 | 40000 ft | 484 kts | 163° |
| 2026-04-26 01:57 | 21.06768 | -157.51509 | 39997 ft | 484 kts | 179° |
| 2026-04-26 01:57 | 21.00016 | -157.51523 | 40003 ft | 485 kts | 183° |
| 2026-04-26 01:58 | 20.93474 | -157.52932 | 40000 ft | 483 kts | 202° |
| 2026-04-26 01:58 | 20.90471 | -157.54546 | 40001 ft | 483 kts | 213° |
| 2026-04-26 01:58 | 20.87790 | -157.56694 | 39997 ft | 482 kts | 223° |
| 2026-04-26 01:59 | 20.83606 | -157.62265 | 39998 ft | 482 kts | 241° |
| 2026-04-26 01:59 | 20.81354 | -157.68935 | 40003 ft | 482 kts | 260° |
| 2026-04-26 02:00 | 20.81288 | -157.76074 | 39999 ft | 482 kts | 279° |
| 2026-04-26 02:00 | 20.83445 | -157.82823 | 40000 ft | 482 kts | 299° |
| 2026-04-26 02:01 | 20.87582 | -157.88432 | 40001 ft | 482 kts | 318° |
| 2026-04-26 02:01 | 20.93236 | -157.92258 | 39998 ft | 483 kts | 338° |
| 2026-04-26 02:02 | 20.99756 | -157.93851 | 40003 ft | 484 kts | 356° |
| 2026-04-26 02:02 | 21.06498 | -157.93947 | 40000 ft | 485 kts | 0° |
| 2026-04-26 02:03 | 21.13130 | -157.93017 | 40000 ft | 485 kts | 17° |
| 2026-04-26 02:03 | 21.19172 | -157.89844 | 40001 ft | 485 kts | 37° |
| 2026-04-26 02:04 | 21.23847 | -157.84670 | 39999 ft | 485 kts | 56° |
| 2026-04-26 02:04 | 21.26631 | -157.78106 | 40002 ft | 486 kts | 76° |
| 2026-04-26 02:05 | 21.27213 | -157.70971 | 39998 ft | 486 kts | 95° |
| 2026-04-26 02:05 | 21.25519 | -157.63986 | 39999 ft | 486 kts | 115° |
| 2026-04-26 02:06 | 21.21742 | -157.58029 | 39998 ft | 485 kts | 135° |
| 2026-04-26 02:06 | 21.16323 | -157.53773 | 39998 ft | 485 kts | 154° |
| 2026-04-26 02:07 | 21.09886 | -157.51710 | 39999 ft | 484 kts | 174° |
| 2026-04-26 02:07 | 21.03183 | -157.51495 | 40002 ft | 485 kts | 180° |
| 2026-04-26 02:08 | 20.96466 | -157.51983 | 40000 ft | 484 kts | 193° |
| 2026-04-26 02:08 | 20.90260 | -157.54687 | 40003 ft | 483 kts | 213° |
| 2026-04-26 02:09 | 20.85346 | -157.59476 | 39999 ft | 482 kts | 232° |
| 2026-04-26 02:09 | 20.82139 | -157.65739 | 40001 ft | 482 kts | 251° |
| 2026-04-26 02:10 | 20.81036 | -157.72777 | 40002 ft | 482 kts | 271° |
| 2026-04-26 02:10 | 20.82181 | -157.79802 | 39999 ft | 482 kts | 290° |
| 2026-04-26 02:11 | 20.85449 | -157.86029 | 40000 ft | 482 kts | 309° |
| 2026-04-26 02:11 | 20.90441 | -157.90725 | 39998 ft | 483 kts | 329° |
| 2026-04-26 02:12 | 20.96647 | -157.93402 | 40002 ft | 483 kts | 348° |
| 2026-04-26 02:12 | 21.03360 | -157.93949 | 39999 ft | 484 kts | 359° |
| 2026-04-26 02:13 | 21.10064 | -157.93707 | 40002 ft | 485 kts | 8° |
| 2026-04-26 02:13 | 21.16508 | -157.91589 | 40002 ft | 485 kts | 27° |
| 2026-04-26 02:14 | 21.21893 | -157.87277 | 40002 ft | 485 kts | 47° |
| 2026-04-26 02:14 | 21.25585 | -157.81316 | 39999 ft | 485 kts | 66° |
| 2026-04-26 02:15 | 21.27224 | -157.74314 | 39997 ft | 486 kts | 86° |
| 2026-04-26 02:15 | 21.26578 | -157.67126 | 40000 ft | 486 kts | 106° |
| 2026-04-26 02:16 | 21.23723 | -157.60604 | 40002 ft | 485 kts | 126° |
| 2026-04-26 02:16 | 21.18993 | -157.55486 | 40000 ft | 485 kts | 145° |
| 2026-04-26 02:17 | 21.12991 | -157.52381 | 40002 ft | 484 kts | 165° |
| 2026-04-26 02:17 | 21.06317 | -157.51507 | 39999 ft | 484 kts | 180° |
| 2026-04-26 02:18 | 20.99557 | -157.51552 | 40002 ft | 485 kts | 184° |
| 2026-04-26 02:18 | 20.93011 | -157.53134 | 40000 ft | 483 kts | 204° |
| 2026-04-26 02:19 | 20.87450 | -157.57020 | 39999 ft | 482 kts | 224° |
| 2026-04-26 02:19 | 20.83388 | -157.62682 | 40001 ft | 482 kts | 243° |
| 2026-04-26 02:20 | 20.81270 | -157.69450 | 39999 ft | 482 kts | 262° |
| 2026-04-26 02:20 | 20.81369 | -157.76580 | 40000 ft | 482 kts | 281° |
| 2026-04-26 02:21 | 20.83678 | -157.83274 | 40001 ft | 482 kts | 300° |
| 2026-04-26 02:21 | 20.87941 | -157.88774 | 40002 ft | 482 kts | 320° |
| 2026-04-26 02:22 | 20.93645 | -157.92434 | 40001 ft | 483 kts | 339° |
| 2026-04-26 02:22 | 21.00208 | -157.93879 | 40002 ft | 484 kts | 357° |
| 2026-04-26 02:23 | 21.06945 | -157.93941 | 40000 ft | 485 kts | 1° |
| 2026-04-26 02:23 | 21.13601 | -157.92863 | 40001 ft | 485 kts | 18° |
| 2026-04-26 02:24 | 21.19526 | -157.89562 | 39998 ft | 485 kts | 38° |
| 2026-04-26 02:24 | 21.24095 | -157.84274 | 39999 ft | 485 kts | 57° |
| 2026-04-26 02:25 | 21.26740 | -157.77649 | 39999 ft | 486 kts | 77° |
| 2026-04-26 02:25 | 21.27169 | -157.70450 | 39997 ft | 486 kts | 97° |
| 2026-04-26 02:26 | 21.25317 | -157.63514 | 39999 ft | 486 kts | 116° |
| 2026-04-26 02:26 | 21.21407 | -157.57658 | 40001 ft | 485 kts | 136° |
| 2026-04-26 02:27 | 21.15919 | -157.53559 | 40000 ft | 485 kts | 156° |
| 2026-04-26 02:27 | 21.09452 | -157.51652 | 40000 ft | 484 kts | 175° |
| 2026-04-26 02:28 | 21.02703 | -157.51488 | 40000 ft | 485 kts | 180° |
| 2026-04-26 02:28 | 20.96040 | -157.52081 | 40000 ft | 484 kts | 194° |
| 2026-04-26 02:29 | 20.89893 | -157.54940 | 40001 ft | 483 kts | 215° |
| 2026-04-26 02:29 | 20.85060 | -157.59867 | 39996 ft | 482 kts | 234° |
| 2026-04-26 02:30 | 20.81999 | -157.66174 | 40002 ft | 482 kts | 253° |
| 2026-04-26 02:30 | 20.81039 | -157.73226 | 40001 ft | 482 kts | 272° |
| 2026-04-26 02:31 | 20.82331 | -157.80240 | 40003 ft | 482 kts | 291° |
| 2026-04-26 02:31 | 20.85726 | -157.86390 | 39999 ft | 482 kts | 310° |
| 2026-04-26 02:32 | 20.90844 | -157.90988 | 40000 ft | 483 kts | 330° |
| 2026-04-26 02:32 | 20.97074 | -157.93496 | 39999 ft | 483 kts | 349° |
| 2026-04-26 02:33 | 21.03793 | -157.93951 | 40004 ft | 484 kts | 359° |
| 2026-04-26 02:33 | 21.10527 | -157.93635 | 40000 ft | 485 kts | 9° |
| 2026-04-26 02:34 | 21.16873 | -157.91386 | 40000 ft | 485 kts | 28° |
| 2026-04-26 02:34 | 21.22169 | -157.86959 | 40001 ft | 485 kts | 48° |
| 2026-04-26 02:35 | 21.25768 | -157.80863 | 39999 ft | 485 kts | 68° |
| 2026-04-26 02:35 | 21.27254 | -157.73836 | 40000 ft | 486 kts | 88° |
| 2026-04-26 02:36 | 21.26461 | -157.66678 | 40002 ft | 486 kts | 107° |
| 2026-04-26 02:36 | 21.23498 | -157.60255 | 40002 ft | 485 kts | 127° |
| 2026-04-26 02:37 | 21.18677 | -157.55242 | 40001 ft | 485 kts | 146° |
| 2026-04-26 02:37 | 21.12561 | -157.52249 | 40001 ft | 484 kts | 166° |
| 2026-04-26 02:38 | 21.05869 | -157.51498 | 40000 ft | 484 kts | 180° |
| 2026-04-26 02:38 | 20.99164 | -157.51578 | 40000 ft | 485 kts | 185° |
| 2026-04-26 02:39 | 20.92649 | -157.53300 | 40001 ft | 483 kts | 205° |
| 2026-04-26 02:39 | 20.87134 | -157.57337 | 40001 ft | 482 kts | 225° |
| 2026-04-26 02:40 | 20.83180 | -157.63101 | 40000 ft | 482 kts | 244° |
| 2026-04-26 02:40 | 20.81210 | -157.69872 | 39997 ft | 482 kts | 263° |
| 2026-04-26 02:41 | 20.81445 | -157.77001 | 40000 ft | 482 kts | 282° |
| 2026-04-26 02:41 | 20.83885 | -157.83647 | 40002 ft | 482 kts | 302° |
| 2026-04-26 02:42 | 20.88257 | -157.89057 | 40000 ft | 482 kts | 321° |
| 2026-04-26 02:42 | 20.94027 | -157.92591 | 39999 ft | 483 kts | 340° |
| 2026-04-26 02:43 | 21.02853 | -157.93945 | 40000 ft | 484 kts | 359° |
| 2026-04-26 02:43 | 21.09589 | -157.93769 | 40001 ft | 485 kts | 7° |
| 2026-04-26 02:44 | 21.16074 | -157.91817 | 40001 ft | 485 kts | 26° |
| 2026-04-26 02:44 | 21.21557 | -157.87652 | 40001 ft | 485 kts | 46° |
| 2026-04-26 02:45 | 21.25391 | -157.81778 | 40000 ft | 485 kts | 65° |
| 2026-04-26 02:45 | 21.27185 | -157.74823 | 39999 ft | 486 kts | 85° |
| 2026-04-26 02:46 | 21.26704 | -157.67624 | 40002 ft | 486 kts | 104° |
| 2026-04-26 02:46 | 21.24018 | -157.61056 | 40000 ft | 485 kts | 124° |
| 2026-04-26 02:47 | 21.19417 | -157.55809 | 39998 ft | 485 kts | 144° |
| 2026-04-26 02:47 | 21.13432 | -157.52515 | 40000 ft | 484 kts | 163° |
| 2026-04-26 02:48 | 21.06815 | -157.51508 | 40000 ft | 484 kts | 179° |
| 2026-04-26 02:48 | 21.00070 | -157.51519 | 40003 ft | 485 kts | 183° |
| 2026-04-26 02:49 | 20.93486 | -157.52923 | 39999 ft | 483 kts | 202° |
| 2026-04-26 02:49 | 20.90482 | -157.54531 | 39998 ft | 483 kts | 213° |
| 2026-04-26 02:49 | 20.87796 | -157.56677 | 39998 ft | 482 kts | 222° |
| 2026-04-26 02:50 | 20.83626 | -157.62205 | 40000 ft | 482 kts | 241° |
| 2026-04-26 02:50 | 20.81350 | -157.68915 | 40002 ft | 482 kts | 260° |
| 2026-04-26 02:51 | 20.81279 | -157.76043 | 40002 ft | 482 kts | 279° |
| 2026-04-26 02:51 | 20.83432 | -157.82803 | 40002 ft | 482 kts | 299° |
| 2026-04-26 02:52 | 20.87534 | -157.88388 | 40002 ft | 482 kts | 318° |
| 2026-04-26 02:52 | 20.93187 | -157.92237 | 40000 ft | 483 kts | 338° |
| 2026-04-26 02:53 | 20.99706 | -157.93849 | 40001 ft | 484 kts | 356° |
| 2026-04-26 02:53 | 21.06455 | -157.93948 | 39998 ft | 485 kts | 0° |
| 2026-04-26 02:54 | 21.13090 | -157.93030 | 40002 ft | 485 kts | 17° |
| 2026-04-26 02:54 | 21.19130 | -157.89877 | 39999 ft | 485 kts | 36° |
| 2026-04-26 02:55 | 21.23825 | -157.84711 | 40002 ft | 485 kts | 56° |
| 2026-04-26 02:55 | 21.26613 | -157.78195 | 40000 ft | 486 kts | 76° |
| 2026-04-26 02:56 | 21.27222 | -157.71009 | 39997 ft | 486 kts | 95° |
| 2026-04-26 02:56 | 21.25541 | -157.64016 | 40000 ft | 486 kts | 115° |
| 2026-04-26 02:57 | 21.21775 | -157.58048 | 40002 ft | 485 kts | 135° |
| 2026-04-26 02:57 | 21.16361 | -157.53778 | 40000 ft | 485 kts | 154° |
| 2026-04-26 02:58 | 21.09983 | -157.51708 | 40003 ft | 484 kts | 174° |
| 2026-04-26 02:58 | 21.03249 | -157.51483 | 40000 ft | 485 kts | 180° |
| 2026-04-26 02:59 | 20.96579 | -157.52055 | 39996 ft | 477 kts | 196° |
| 2026-04-26 02:59 | 20.93526 | -157.53390 | 40001 ft | 472 kts | 210° |
| 2026-04-26 02:59 | 20.90842 | -157.55372 | 39999 ft | 467 kts | 221° |
| 2026-04-26 03:00 | 20.86684 | -157.60584 | 40001 ft | 458 kts | 239° |
| 2026-04-26 03:00 | 20.84186 | -157.66713 | 39999 ft | 450 kts | 255° |
| 2026-04-26 03:01 | 20.83362 | -157.73266 | 39996 ft | 442 kts | 271° |
| 2026-04-26 03:01 | 20.84246 | -157.79692 | 40001 ft | 434 kts | 288° |
| 2026-04-26 03:02 | 20.86773 | -157.85486 | 39999 ft | 427 kts | 305° |
| 2026-04-26 03:02 | 20.90717 | -157.90082 | 40000 ft | 420 kts | 323° |
| 2026-04-26 03:03 | 20.95785 | -157.93045 | 40000 ft | 413 kts | 343° |
| 2026-04-26 03:03 | 21.01392 | -157.93962 | 39995 ft | 406 kts | 0° |
| 2026-04-26 03:04 | 21.07001 | -157.93938 | 40000 ft | 399 kts | 3° |
| 2026-04-26 03:04 | 21.12365 | -157.92885 | 39999 ft | 392 kts | 24° |
| 2026-04-26 03:05 | 21.14754 | -157.91518 | 39999 ft | 388 kts | 37° |
| 2026-04-26 03:05 | 21.16761 | -157.89624 | 39999 ft | 384 kts | 51° |
| 2026-04-26 03:05 | 21.18275 | -157.87285 | 39994 ft | 380 kts | 65° |
| 2026-04-26 03:05 | 21.19183 | -157.84642 | 39995 ft | 375 kts | 81° |
| 2026-04-26 03:06 | 21.19417 | -157.81877 | 39998 ft | 370 kts | 96° |
| 2026-04-26 03:06 | 21.18964 | -157.79189 | 39997 ft | 365 kts | 112° |
| 2026-04-26 03:06 | 21.17867 | -157.76769 | 39995 ft | 359 kts | 128° |
| 2026-04-26 03:06 | 21.16252 | -157.74806 | 39996 ft | 354 kts | 143° |
| 2026-04-26 03:07 | 21.14213 | -157.73380 | 39995 ft | 347 kts | 159° |
| 2026-04-26 03:07 | 21.11932 | -157.72609 | 39950 ft | 342 kts | 176° |
| 2026-04-26 03:07 | 21.09559 | -157.72771 | 39480 ft | 349 kts | 203° |
| 2026-04-26 03:07 | 21.07511 | -157.74244 | 38515 ft | 370 kts | 237° |
| 2026-04-26 03:08 | 21.06645 | -157.76818 | 38047 ft | 373 kts | 276° |
| 2026-04-26 03:08 | 21.07429 | -157.79348 | 38324 ft | 355 kts | 312° |
| 2026-04-26 03:08 | 21.09358 | -157.80885 | 38369 ft | 348 kts | 346° |
| 2026-04-26 03:08 | 21.11729 | -157.81022 | 37892 ft | 356 kts | 19° |
| 2026-04-26 03:09 | 21.13862 | -157.79589 | 37235 ft | 369 kts | 57° |
| 2026-04-26 03:09 | 21.14706 | -157.77089 | 37101 ft | 365 kts | 95° |
| 2026-04-26 03:09 | 21.13966 | -157.74582 | 37203 ft | 353 kts | 132° |
| 2026-04-26 03:09 | 21.12037 | -157.73058 | 37085 ft | 348 kts | 168° |
| 2026-04-26 03:10 | 21.09650 | -157.73046 | 36721 ft | 351 kts | 204° |
| 2026-04-26 03:10 | 21.07709 | -157.74602 | 36283 ft | 356 kts | 242° |
| 2026-04-26 03:10 | 21.07093 | -157.77120 | 36070 ft | 355 kts | 281° |
| 2026-04-26 03:10 | 21.08072 | -157.79464 | 36069 ft | 348 kts | 319° |
| 2026-04-26 03:11 | 21.10157 | -157.80629 | 36072 ft | 341 kts | 358° |
| 2026-04-26 03:11 | 21.12423 | -157.80187 | 35928 ft | 340 kts | 35° |
| 2026-04-26 03:11 | 21.13973 | -157.78328 | 35646 ft | 343 kts | 73° |
| 2026-04-26 03:11 | 21.14100 | -157.75801 | 35300 ft | 347 kts | 113° |
| 2026-04-26 03:12 | 21.12700 | -157.73761 | 35037 ft | 347 kts | 153° |
| 2026-04-26 03:12 | 21.10424 | -157.73157 | 34953 ft | 340 kts | 193° |
| 2026-04-26 03:12 | 21.08368 | -157.74233 | 34952 ft | 332 kts | 233° |
| 2026-04-26 03:12 | 21.07456 | -157.76429 | 34875 ft | 326 kts | 273° |
| 2026-04-26 03:13 | 21.08065 | -157.78695 | 34644 ft | 327 kts | 312° |
| 2026-04-26 03:13 | 21.09963 | -157.80033 | 34320 ft | 332 kts | 354° |
| 2026-04-26 03:13 | 21.12188 | -157.79710 | 34058 ft | 335 kts | 34° |
| 2026-04-26 03:13 | 21.13685 | -157.77869 | 33925 ft | 333 kts | 76° |
| 2026-04-26 03:14 | 21.13666 | -157.75468 | 33867 ft | 327 kts | 118° |
| 2026-04-26 03:14 | 21.12188 | -157.73709 | 33761 ft | 323 kts | 160° |
| 2026-04-26 03:14 | 21.10004 | -157.73453 | 33569 ft | 321 kts | 202° |
| 2026-04-26 03:14 | 21.08240 | -157.74831 | 33322 ft | 321 kts | 245° |
| 2026-04-26 03:15 | 21.07825 | -157.77119 | 33104 ft | 321 kts | 288° |
| 2026-04-26 03:15 | 21.08991 | -157.79084 | 32952 ft | 319 kts | 331° |
| 2026-04-26 03:15 | 21.11089 | -157.79647 | 32854 ft | 317 kts | 14° |
| 2026-04-26 03:15 | 21.12944 | -157.78548 | 32734 ft | 315 kts | 57° |
| 2026-04-26 03:16 | 21.13605 | -157.76364 | 32551 ft | 315 kts | 101° |
| 2026-04-26 03:16 | 21.12669 | -157.74290 | 32319 ft | 316 kts | 145° |
| 2026-04-26 03:16 | 21.10657 | -157.73511 | 32128 ft | 314 kts | 190° |
| 2026-04-26 03:16 | 21.08750 | -157.74450 | 31990 ft | 310 kts | 234° |
| 2026-04-26 03:17 | 21.08025 | -157.76545 | 31894 ft | 306 kts | 279° |
| 2026-04-26 03:17 | 21.08896 | -157.78550 | 31748 ft | 305 kts | 324° |
| 2026-04-26 03:17 | 21.10849 | -157.79295 | 31566 ft | 306 kts | 10° |
| 2026-04-26 03:17 | 21.12718 | -157.78320 | 31362 ft | 308 kts | 56° |
| 2026-04-26 03:18 | 21.13370 | -157.76195 | 31179 ft | 308 kts | 102° |
| 2026-04-26 03:18 | 21.12392 | -157.74226 | 31032 ft | 305 kts | 149° |
| 2026-04-26 03:18 | 21.10412 | -157.73639 | 30917 ft | 301 kts | 196° |
| 2026-04-26 03:18 | 21.08683 | -157.74763 | 30800 ft | 298 kts | 243° |
| 2026-04-26 03:19 | 21.08280 | -157.76871 | 30607 ft | 297 kts | 290° |
| 2026-04-26 03:19 | 21.09444 | -157.78599 | 30428 ft | 298 kts | 337° |
| 2026-04-26 03:19 | 21.11456 | -157.78846 | 30249 ft | 299 kts | 25° |
| 2026-04-26 03:19 | 21.12974 | -157.77407 | 30125 ft | 299 kts | 73° |
| 2026-04-26 03:20 | 21.12989 | -157.75250 | 29997 ft | 297 kts | 122° |
| 2026-04-26 03:20 | 21.11508 | -157.73811 | 29849 ft | 294 kts | 170° |
| 2026-04-26 03:20 | 21.09562 | -157.74034 | 29692 ft | 292 kts | 219° |
| 2026-04-26 03:20 | 21.08595 | -157.75764 | 28887 ft | 272 kts | 292° |
| 2026-04-26 03:21 | 21.09038 | -157.76338 | 22351 ft | 122 kts | 234° |
| 2026-04-26 03:21 | 21.08736 | -157.76208 | 13526 ft | 29 kts | 22° |
| 2026-04-26 03:21 | 21.08664 | -157.76089 | 5573 ft | 69 kts | 150° |
| 2026-04-26 03:21 | 21.08634 | -157.76096 | 717 ft | 418 kts | 77° |
| 2026-04-26 03:22 | 21.09083 | -157.73866 | 4297 ft | 229 kts | 78° |
| 2026-04-26 03:22 | 21.09316 | -157.72647 | 6401 ft | 119 kts | 78° |
| 2026-04-26 03:22 | 21.09499 | -157.71697 | 5674 ft | 155 kts | 78° |
| 2026-04-26 03:22 | 21.09683 | -157.70772 | 5487 ft | 136 kts | 77° |
| 2026-04-26 03:23 | 21.09880 | -157.69788 | 5297 ft | 128 kts | 78° |
| 2026-04-26 03:23 | 21.10072 | -157.68804 | 4963 ft | 127 kts | 78° |
| 2026-04-26 03:23 | 21.10256 | -157.67820 | 4609 ft | 127 kts | 79° |
| 2026-04-26 03:23 | 21.10428 | -157.66841 | 4237 ft | 128 kts | 79° |
| 2026-04-26 03:24 | 21.10588 | -157.65864 | 3868 ft | 129 kts | 80° |
| 2026-04-26 03:24 | 21.10733 | -157.64892 | 3514 ft | 129 kts | 81° |
| 2026-04-26 03:24 | 21.10862 | -157.63920 | 3153 ft | 129 kts | 82° |
| 2026-04-26 03:24 | 21.10974 | -157.62964 | 2790 ft | 129 kts | 83° |
| 2026-04-26 03:25 | 21.11067 | -157.61997 | 2434 ft | 130 kts | 84° |
| 2026-04-26 03:25 | 21.11138 | -157.61034 | 2095 ft | 130 kts | 86° |
| 2026-04-26 03:25 | 21.11185 | -157.60070 | 1728 ft | 134 kts | 88° |
| 2026-04-26 03:25 | 21.11205 | -157.59107 | 1369 ft | 138 kts | 90° |
| 2026-04-26 03:26 | 21.11193 | -157.58143 | 1062 ft | 135 kts | 92° |
| 2026-04-26 03:26 | 21.11144 | -157.57188 | 836 ft | 126 kts | 94° |
| 2026-04-26 03:26 | 21.11052 | -157.56246 | 476 ft | 127 kts | 97° |
| 2026-04-26 03:26 | 21.10905 | -157.55305 | 156 ft | 128 kts | 101° |
| 2026-04-26 03:27 | 21.10445 | -157.53248 | 3149 ft | 273 kts | 104° |
| 2026-04-26 03:27 | 21.10115 | -157.51769 | 5978 ft | 142 kts | 103° |
| 2026-04-26 03:27 | 21.09934 | -157.50888 | 5944 ft | 130 kts | 102° |
| 2026-04-26 03:27 | 21.09754 | -157.49890 | 5802 ft | 123 kts | 100° |
| 2026-04-26 03:28 | 21.09592 | -157.48895 | 5397 ft | 126 kts | 99° |
| 2026-04-26 03:28 | 21.09440 | -157.47902 | 5017 ft | 128 kts | 99° |
| 2026-04-26 03:28 | 21.09297 | -157.46925 | 4649 ft | 130 kts | 99° |
| 2026-04-26 03:28 | 21.09157 | -157.45925 | 4173 ft | 138 kts | 98° |
| 2026-04-26 03:29 | 21.09021 | -157.44919 | 3894 ft | 132 kts | 98° |
| 2026-04-26 03:29 | 21.08893 | -157.43932 | 3462 ft | 138 kts | 98° |
| 2026-04-26 03:29 | 21.08770 | -157.42940 | 3155 ft | 133 kts | 97° |
| 2026-04-26 03:29 | 21.08656 | -157.41950 | 2792 ft | 134 kts | 97° |
| 2026-04-26 03:30 | 21.08553 | -157.40963 | 2494 ft | 131 kts | 96° |
| 2026-04-26 03:30 | 21.08467 | -157.39990 | 2115 ft | 133 kts | 95° |
| 2026-04-26 03:30 | 21.08398 | -157.39015 | 1773 ft | 133 kts | 93° |
| 2026-04-26 03:30 | 21.08355 | -157.38035 | 1458 ft | 130 kts | 91° |
| 2026-04-26 03:31 | 21.08347 | -157.37060 | 1104 ft | 131 kts | 89° |
| 2026-04-26 03:31 | 21.08383 | -157.36095 | 805 ft | 129 kts | 86° |
| 2026-04-26 03:31 | 21.08468 | -157.35134 | 453 ft | 129 kts | 82° |
| 2026-04-26 03:31 | 21.08607 | -157.34202 | 181 ft | 125 kts | 79° |
| 2026-04-26 03:32 | 21.08749 | -157.33520 | 667 ft | 418 kts | 76° |
| 2026-04-26 03:32 | 21.09262 | -157.31294 | 4330 ft | 225 kts | 76° |
| 2026-04-26 03:32 | 21.09546 | -157.30111 | 6387 ft | 117 kts | 75° |
| 2026-04-26 03:32 | 21.09786 | -157.29192 | 5641 ft | 153 kts | 73° |
| 2026-04-26 03:33 | 21.10043 | -157.28271 | 5378 ft | 145 kts | 73° |
| 2026-04-26 03:33 | 21.10306 | -157.27296 | 5086 ft | 141 kts | 74° |
| 2026-04-26 03:33 | 21.10557 | -157.26310 | 4718 ft | 144 kts | 75° |
| 2026-04-26 03:33 | 21.10797 | -157.25320 | 4491 ft | 133 kts | 75° |
| 2026-04-26 03:34 | 21.11034 | -157.24347 | 4078 ft | 137 kts | 75° |
| 2026-04-26 03:34 | 21.11277 | -157.23364 | 3742 ft | 135 kts | 75° |
| 2026-04-26 03:34 | 21.11508 | -157.22394 | 3443 ft | 132 kts | 76° |
| 2026-04-26 03:34 | 21.11721 | -157.21434 | 3031 ft | 137 kts | 77° |
| 2026-04-26 03:35 | 21.11926 | -157.20468 | 2785 ft | 129 kts | 77° |
| 2026-04-26 03:35 | 21.12135 | -157.19507 | 2341 ft | 137 kts | 76° |
| 2026-04-26 03:35 | 21.12365 | -157.18551 | 2069 ft | 129 kts | 75° |
| 2026-04-26 03:35 | 21.12608 | -157.17614 | 1723 ft | 130 kts | 74° |
| 2026-04-26 03:36 | 21.12859 | -157.16671 | 1355 ft | 132 kts | 74° |
| 2026-04-26 03:36 | 21.13386 | -157.14704 | 4332 ft | 275 kts | 73° |
| 2026-04-26 03:36 | 21.13790 | -157.13222 | 7207 ft | 144 kts | 73° |
| 2026-04-26 03:36 | 21.14048 | -157.12348 | 7219 ft | 131 kts | 71° |
| 2026-04-26 03:37 | 21.14365 | -157.11364 | 6999 ft | 128 kts | 70° |
| 2026-04-26 03:37 | 21.14701 | -157.10392 | 6586 ft | 132 kts | 69° |
| 2026-04-26 03:37 | 21.15050 | -157.09442 | 6136 ft | 138 kts | 68° |
| 2026-04-26 03:37 | 21.15423 | -157.08469 | 5761 ft | 138 kts | 67° |
| 2026-04-26 03:38 | 21.15802 | -157.07519 | 5351 ft | 142 kts | 65° |
| 2026-04-26 03:38 | 21.16203 | -157.06580 | 5072 ft | 135 kts | 64° |
| 2026-04-26 03:38 | 21.16628 | -157.05666 | 4611 ft | 141 kts | 62° |
| 2026-04-26 03:38 | 21.17086 | -157.04770 | 4358 ft | 133 kts | 60° |
| 2026-04-26 03:39 | 21.17567 | -157.03917 | 3927 ft | 140 kts | 56° |
| 2026-04-26 03:39 | 21.18102 | -157.03082 | 3630 ft | 131 kts | 53° |
| 2026-04-26 03:39 | 21.18678 | -157.02310 | 3293 ft | 132 kts | 49° |
| 2026-04-26 03:39 | 21.19323 | -157.01587 | 2926 ft | 132 kts | 41° |
| 2026-04-26 03:40 | 21.20024 | -157.00964 | 2664 ft | 127 kts | 36° |
| 2026-04-26 03:40 | 21.20791 | -157.00435 | 2189 ft | 137 kts | 27° |
| 2026-04-26 03:40 | 21.21620 | -157.00029 | 1943 ft | 127 kts | 19° |
| 2026-04-26 03:40 | 21.22478 | -156.99775 | 1608 ft | 127 kts | 11° |
| 2026-04-26 03:41 | 21.23369 | -156.99684 | 1166 ft | 135 kts | 358° |
| 2026-04-26 03:41 | 21.24252 | -156.99783 | 912 ft | 126 kts | 345° |
| 2026-04-26 03:41 | 21.25072 | -157.00076 | 671 ft | 119 kts | 334° |
| 2026-04-26 03:41 | 21.25803 | -157.00561 | 352 ft | 119 kts | 321° |
| 2026-04-26 03:42 | 21.27342 | -157.02510 | 3213 ft | 271 kts | 308° |
| 2026-04-26 03:42 | 21.28208 | -157.03707 | 6061 ft | 141 kts | 307° |
| 2026-04-26 03:42 | 21.28703 | -157.04416 | 6084 ft | 127 kts | 306° |
| 2026-04-26 03:43 | 21.29236 | -157.05232 | 5975 ft | 116 kts | 303° |
| 2026-04-26 03:43 | 21.29741 | -157.06044 | 5517 ft | 120 kts | 302° |
| 2026-04-26 03:43 | 21.30232 | -157.06861 | 4982 ft | 132 kts | 302° |
| 2026-04-26 03:43 | 21.30709 | -157.07674 | 4558 ft | 144 kts | 301° |
| 2026-04-26 03:44 | 21.31173 | -157.08483 | 4196 ft | 144 kts | 301° |
| 2026-04-26 03:44 | 21.31633 | -157.09297 | 3890 ft | 139 kts | 300° |
| 2026-04-26 03:44 | 21.32091 | -157.10122 | 3575 ft | 134 kts | 300° |
| 2026-04-26 03:44 | 21.32545 | -157.10942 | 3301 ft | 127 kts | 300° |
| 2026-04-26 03:45 | 21.32986 | -157.11751 | 3025 ft | 124 kts | 300° |
| 2026-04-26 03:45 | 21.33417 | -157.12573 | 2725 ft | 122 kts | 298° |
| 2026-04-26 03:45 | 21.33832 | -157.13399 | 2393 ft | 121 kts | 297° |
| 2026-04-26 03:45 | 21.34234 | -157.14228 | 2068 ft | 120 kts | 296° |
| 2026-04-26 03:46 | 21.34622 | -157.15061 | 1735 ft | 119 kts | 295° |
| 2026-04-26 03:46 | 21.34981 | -157.15901 | 1442 ft | 116 kts | 293° |
| 2026-04-26 03:46 | 21.35301 | -157.16753 | 1144 ft | 113 kts | 290° |
| 2026-04-26 03:47 | 21.35790 | -157.18502 | 479 ft | 112 kts | 282° |
| 2026-04-26 03:47 | 21.35928 | -157.19389 | 208 ft | 108 kts | 277° |
| 2026-04-26 03:47 | 21.36115 | -157.21309 | 3262 ft | 270 kts | 276° |
| 2026-04-26 03:47 | 21.36256 | -157.22802 | 6073 ft | 142 kts | 275° |
| 2026-04-26 03:48 | 21.36330 | -157.23690 | 6155 ft | 126 kts | 275° |
| 2026-04-26 03:48 | 21.36402 | -157.24686 | 6027 ft | 116 kts | 274° |
| 2026-04-26 03:48 | 21.36471 | -157.25670 | 5554 ft | 121 kts | 274° |
| 2026-04-26 03:48 | 21.36540 | -157.26638 | 5039 ft | 130 kts | 274° |
| 2026-04-26 03:49 | 21.36615 | -157.27597 | 4625 ft | 139 kts | 275° |
| 2026-04-26 03:49 | 21.36696 | -157.28561 | 4284 ft | 140 kts | 275° |
| 2026-04-26 03:49 | 21.36784 | -157.29509 | 3942 ft | 140 kts | 276° |
| 2026-04-26 03:49 | 21.36884 | -157.30480 | 3607 ft | 138 kts | 276° |
| 2026-04-26 03:50 | 21.36991 | -157.31419 | 3274 ft | 136 kts | 277° |
| 2026-04-26 03:50 | 21.37108 | -157.32362 | 2944 ft | 135 kts | 278° |
| 2026-04-26 03:50 | 21.37233 | -157.33297 | 2640 ft | 132 kts | 278° |
| 2026-04-26 03:50 | 21.37365 | -157.34234 | 2336 ft | 126 kts | 279° |
| 2026-04-26 03:51 | 21.37506 | -157.35163 | 2043 ft | 122 kts | 279° |
| 2026-04-26 03:51 | 21.37656 | -157.36081 | 1714 ft | 120 kts | 280° |
| 2026-04-26 03:51 | 21.37816 | -157.36990 | 1362 ft | 121 kts | 281° |
| 2026-04-26 03:51 | 21.37986 | -157.37892 | 1004 ft | 124 kts | 282° |
| 2026-04-26 03:52 | 21.38164 | -157.38783 | 640 ft | 129 kts | 282° |
| 2026-04-26 03:52 | 21.38346 | -157.39653 | 268 ft | 134 kts | 283° |
| 2026-04-26 03:52 | 21.38514 | -157.40402 | 668 ft | 418 kts | 283° |
| 2026-04-26 03:52 | 21.39015 | -157.42617 | 4421 ft | 225 kts | 283° |
| 2026-04-26 03:53 | 21.39278 | -157.43810 | 6529 ft | 116 kts | 283° |
| 2026-04-26 03:53 | 21.39464 | -157.44728 | 5804 ft | 154 kts | 281° |
| 2026-04-26 03:53 | 21.39628 | -157.45648 | 5690 ft | 127 kts | 280° |
| 2026-04-26 03:53 | 21.39789 | -157.46619 | 5487 ft | 122 kts | 279° |
| 2026-04-26 03:54 | 21.39942 | -157.47576 | 5153 ft | 120 kts | 279° |
| 2026-04-26 03:54 | 21.40092 | -157.48539 | 4782 ft | 121 kts | 279° |
| 2026-04-26 03:54 | 21.40239 | -157.49499 | 4399 ft | 121 kts | 279° |
| 2026-04-26 03:54 | 21.40383 | -157.50453 | 4029 ft | 122 kts | 279° |
| 2026-04-26 03:55 | 21.40523 | -157.51400 | 3675 ft | 121 kts | 279° |
| 2026-04-26 03:55 | 21.40661 | -157.52342 | 3324 ft | 121 kts | 279° |
| 2026-04-26 03:55 | 21.40799 | -157.53267 | 2974 ft | 121 kts | 279° |
| 2026-04-26 03:55 | 21.40938 | -157.54201 | 2627 ft | 121 kts | 279° |
| 2026-04-26 03:56 | 21.41074 | -157.55126 | 2281 ft | 121 kts | 279° |
| 2026-04-26 03:56 | 21.41211 | -157.56048 | 1936 ft | 121 kts | 279° |
| 2026-04-26 03:56 | 21.41352 | -157.56964 | 1612 ft | 121 kts | 279° |
| 2026-04-26 03:56 | 21.41494 | -157.57875 | 1278 ft | 121 kts | 279° |
| 2026-04-26 03:57 | 21.41636 | -157.58782 | 943 ft | 122 kts | 279° |
| 2026-04-26 03:57 | 21.41779 | -157.59683 | 605 ft | 123 kts | 279° |
| 2026-04-26 03:57 | 21.41914 | -157.60577 | 249 ft | 127 kts | 278° |
| 2026-04-26 03:57 | 21.42127 | -157.62102 | 1762 ft | 323 kts | 278° |
| 2026-04-26 03:58 | 21.42379 | -157.63942 | 5367 ft | 181 kts | 278° |
| 2026-04-26 03:58 | 21.42505 | -157.64928 | 6538 ft | 112 kts | 277° |
| 2026-04-26 03:58 | 21.42608 | -157.65909 | 5944 ft | 121 kts | 275° |
| 2026-04-26 03:58 | 21.42688 | -157.66844 | 5362 ft | 148 kts | 275° |
| 2026-04-26 03:59 | 21.42761 | -157.67788 | 5076 ft | 141 kts | 274° |
| 2026-04-26 03:59 | 21.42833 | -157.68760 | 4792 ft | 134 kts | 274° |
| 2026-04-26 03:59 | 21.42902 | -157.69739 | 4409 ft | 138 kts | 274° |
| 2026-04-26 03:59 | 21.42972 | -157.70716 | 4038 ft | 140 kts | 274° |
| 2026-04-26 04:00 | 21.43043 | -157.71694 | 3725 ft | 136 kts | 274° |
| 2026-04-26 04:00 | 21.43111 | -157.72660 | 3430 ft | 130 kts | 274° |
| 2026-04-26 04:00 | 21.43179 | -157.73614 | 3154 ft | 124 kts | 274° |
| 2026-04-26 04:00 | 21.43243 | -157.74549 | 2876 ft | 120 kts | 274° |
| 2026-04-26 04:01 | 21.43298 | -157.75489 | 2574 ft | 119 kts | 273° |
| 2026-04-26 04:01 | 21.43336 | -157.76428 | 2257 ft | 118 kts | 272° |
| 2026-04-26 04:01 | 21.43363 | -157.77360 | 1933 ft | 117 kts | 271° |
| 2026-04-26 04:01 | 21.43380 | -157.78288 | 1592 ft | 118 kts | 271° |
| 2026-04-26 04:02 | 21.43388 | -157.79215 | 1202 ft | 122 kts | 270° |
| 2026-04-26 04:02 | 21.43385 | -157.80150 | 761 ft | 132 kts | 269° |
| 2026-04-26 04:02 | 21.43366 | -157.81090 | 509 ft | 124 kts | 268° |
| 2026-04-26 04:02 | 21.43330 | -157.82037 | 756 ft | 418 kts | 267° |
| 2026-04-26 04:03 | 21.43219 | -157.84302 | 4553 ft | 221 kts | 267° |
| 2026-04-26 04:03 | 21.43146 | -157.85484 | 6590 ft | 114 kts | 265° |
| 2026-04-26 04:03 | 21.43054 | -157.86412 | 5820 ft | 154 kts | 262° |
| 2026-04-26 04:03 | 21.42922 | -157.87338 | 5660 ft | 129 kts | 261° |
| 2026-04-26 04:04 | 21.42751 | -157.88311 | 5479 ft | 123 kts | 258° |
| 2026-04-26 04:04 | 21.42552 | -157.89272 | 5135 ft | 122 kts | 257° |
| 2026-04-26 04:04 | 21.42327 | -157.90224 | 4773 ft | 122 kts | 255° |
| 2026-04-26 04:04 | 21.42071 | -157.91158 | 4406 ft | 122 kts | 252° |
| 2026-04-26 04:05 | 21.41783 | -157.92067 | 4065 ft | 122 kts | 250° |
| 2026-04-26 04:05 | 21.41450 | -157.92964 | 3720 ft | 123 kts | 247° |
| 2026-04-26 04:05 | 21.41060 | -157.93828 | 3364 ft | 124 kts | 242° |
| 2026-04-26 04:05 | 21.40606 | -157.94652 | 2930 ft | 127 kts | 238° |
| 2026-04-26 04:06 | 21.40106 | -157.95442 | 2516 ft | 134 kts | 234° |
| 2026-04-26 04:06 | 21.39559 | -157.96188 | 2163 ft | 137 kts | 229° |
| 2026-04-26 04:06 | 21.38947 | -157.96868 | 1834 ft | 138 kts | 222° |
| 2026-04-26 04:06 | 21.38267 | -157.97455 | 1508 ft | 137 kts | 214° |
| 2026-04-26 04:07 | 21.37514 | -157.97931 | 1172 ft | 136 kts | 206° |
| 2026-04-26 04:07 | 21.36709 | -157.98273 | 842 ft | 136 kts | 196° |
| 2026-04-26 04:07 | 21.35857 | -157.98459 | 567 ft | 132 kts | 185° |
| 2026-04-26 04:07 | 21.34998 | -157.98456 | 307 ft | 124 kts | 172° |
| 2026-04-26 04:08 | 21.33694 | -157.98125 | 1663 ft | 327 kts | 165° |
| 2026-04-26 04:08 | 21.32009 | -157.97624 | 5283 ft | 182 kts | 165° |
| 2026-04-26 04:08 | 21.31119 | -157.97335 | 6445 ft | 112 kts | 163° |
| 2026-04-26 04:08 | 21.30227 | -157.97018 | 5872 ft | 122 kts | 161° |
| 2026-04-26 04:09 | 21.29384 | -157.96692 | 5248 ft | 151 kts | 160° |
| 2026-04-26 04:09 | 21.28544 | -157.96353 | 4945 ft | 145 kts | 160° |
| 2026-04-26 04:09 | 21.27690 | -157.95997 | 4772 ft | 129 kts | 159° |
| 2026-04-26 04:09 | 21.26834 | -157.95631 | 4502 ft | 125 kts | 159° |
| 2026-04-26 04:10 | 21.25983 | -157.95256 | 4181 ft | 123 kts | 158° |
| 2026-04-26 04:10 | 21.25141 | -157.94873 | 3825 ft | 123 kts | 157° |
| 2026-04-26 04:10 | 21.24308 | -157.94482 | 3485 ft | 122 kts | 156° |
| 2026-04-26 04:10 | 21.23483 | -157.94080 | 3154 ft | 121 kts | 156° |
| 2026-04-26 04:11 | 21.22670 | -157.93664 | 2830 ft | 120 kts | 154° |
| 2026-04-26 04:11 | 21.21880 | -157.93235 | 2489 ft | 120 kts | 153° |
| 2026-04-26 04:11 | 21.21094 | -157.92777 | 2144 ft | 120 kts | 151° |
| 2026-04-26 04:11 | 21.20329 | -157.92294 | 1802 ft | 121 kts | 149° |
| 2026-04-26 04:12 | 21.19583 | -157.91781 | 1429 ft | 125 kts | 147° |
| 2026-04-26 04:12 | 21.18849 | -157.91225 | 965 ft | 135 kts | 143° |
| 2026-04-26 04:12 | 21.18151 | -157.90623 | 752 ft | 124 kts | 140° |
| 2026-04-26 04:12 | 21.17500 | -157.89972 | 320 ft | 132 kts | 134° |
| 2026-04-26 04:13 | 21.16909 | -157.89268 | 103 ft | 122 kts | 129° |
| 2026-04-26 04:13 | 21.15816 | -157.87819 | 3134 ft | 273 kts | 129° |
| 2026-04-26 04:13 | 21.14931 | -157.86625 | 5974 ft | 142 kts | 128° |
| 2026-04-26 04:13 | 21.14432 | -157.85916 | 5982 ft | 128 kts | 127° |
| 2026-04-26 04:14 | 21.13881 | -157.85088 | 5809 ft | 123 kts | 125° |
| 2026-04-26 04:14 | 21.13348 | -157.84253 | 5384 ft | 127 kts | 124° |
| 2026-04-26 04:14 | 21.12829 | -157.83416 | 5017 ft | 128 kts | 123° |
| 2026-04-26 04:14 | 21.12319 | -157.82572 | 4616 ft | 131 kts | 123° |
| 2026-04-26 04:15 | 21.11815 | -157.81721 | 4160 ft | 139 kts | 122° |
| 2026-04-26 04:15 | 21.11323 | -157.80866 | 3887 ft | 132 kts | 122° |
| 2026-04-26 04:15 | 21.10844 | -157.80012 | 3467 ft | 138 kts | 121° |
| 2026-04-26 04:15 | 21.10375 | -157.79148 | 3189 ft | 129 kts | 120° |
| 2026-04-26 04:16 | 21.09924 | -157.78285 | 2776 ft | 136 kts | 118° |
| 2026-04-26 04:16 | 21.09491 | -157.77411 | 2504 ft | 129 kts | 117° |
| 2026-04-26 04:16 | 21.09083 | -157.76533 | 2088 ft | 135 kts | 115° |
| 2026-04-26 04:16 | 21.08707 | -157.75644 | 1843 ft | 127 kts | 114° |
| 2026-04-26 04:17 | 21.08372 | -157.74747 | 1416 ft | 135 kts | 110° |
| 2026-04-26 04:17 | 21.08082 | -157.73826 | 1150 ft | 126 kts | 107° |
| 2026-04-26 04:17 | 21.07854 | -157.72903 | 772 ft | 130 kts | 103° |
| 2026-04-26 04:17 | 21.07697 | -157.71956 | 448 ft | 128 kts | 96° |
| 2026-04-26 04:18 | 21.07630 | -157.71026 | 172 ft | 125 kts | 92° |
| 2026-04-26 04:18 | 21.07653 | -157.69182 | 3113 ft | 273 kts | 89° |
| 2026-04-26 04:18 | 21.07678 | -157.67658 | 5943 ft | 143 kts | 89° |
| 2026-04-26 04:18 | 21.07695 | -157.66756 | 5940 ft | 129 kts | 88° |
| 2026-04-26 04:19 | 21.07725 | -157.65741 | 5773 ft | 124 kts | 88° |
| 2026-04-26 04:19 | 21.07758 | -157.64728 | 5375 ft | 126 kts | 88° |
| 2026-04-26 04:19 | 21.07787 | -157.63733 | 4996 ft | 129 kts | 88° |
| 2026-04-26 04:19 | 21.07811 | -157.62726 | 4591 ft | 133 kts | 89° |
| 2026-04-26 04:20 | 21.07825 | -157.61708 | 4150 ft | 139 kts | 89° |
| 2026-04-26 04:20 | 21.07830 | -157.60703 | 3865 ft | 134 kts | 90° |
| 2026-04-26 04:20 | 21.07824 | -157.59696 | 3457 ft | 136 kts | 91° |
| 2026-04-26 04:20 | 21.07806 | -157.58697 | 3122 ft | 135 kts | 91° |
| 2026-04-26 04:21 | 21.07776 | -157.57701 | 2763 ft | 135 kts | 92° |
| 2026-04-26 04:21 | 21.07734 | -157.56716 | 2482 ft | 130 kts | 93° |
| 2026-04-26 04:21 | 21.07677 | -157.55728 | 2084 ft | 134 kts | 94° |
| 2026-04-26 04:21 | 21.07607 | -157.54773 | 1819 ft | 128 kts | 95° |
| 2026-04-26 04:22 | 21.07521 | -157.53800 | 1398 ft | 133 kts | 96° |
| 2026-04-26 04:22 | 21.07422 | -157.52839 | 1140 ft | 128 kts | 97° |
| 2026-04-26 04:22 | 21.07309 | -157.51878 | 743 ft | 131 kts | 98° |
| 2026-04-26 04:22 | 21.07182 | -157.50935 | 483 ft | 125 kts | 98° |
| 2026-04-26 04:23 | 21.07041 | -157.49993 | 65 ft | 132 kts | 99° |
| 2026-04-26 04:23 | 21.06720 | -157.48031 | 3116 ft | 273 kts | 100° |
| 2026-04-26 04:23 | 21.06479 | -157.46523 | 5952 ft | 142 kts | 99° |
| 2026-04-26 04:23 | 21.06352 | -157.45637 | 5951 ft | 129 kts | 98° |
| 2026-04-26 04:24 | 21.06227 | -157.44627 | 5755 ft | 125 kts | 97° |
| 2026-04-26 04:24 | 21.06114 | -157.43624 | 5361 ft | 128 kts | 97° |
| 2026-04-26 04:24 | 21.06008 | -157.42629 | 4953 ft | 132 kts | 96° |
| 2026-04-26 04:24 | 21.05902 | -157.41614 | 4477 ft | 141 kts | 96° |
| 2026-04-26 04:25 | 21.05797 | -157.40611 | 4225 ft | 132 kts | 96° |
| 2026-04-26 04:25 | 21.05692 | -157.39620 | 3819 ft | 135 kts | 96° |
| 2026-04-26 04:25 | 21.05582 | -157.38619 | 3457 ft | 135 kts | 97° |
| 2026-04-26 04:25 | 21.05470 | -157.37636 | 3179 ft | 131 kts | 97° |
| 2026-04-26 04:26 | 21.05354 | -157.36649 | 2736 ft | 137 kts | 97° |
| 2026-04-26 04:26 | 21.05233 | -157.35675 | 2494 ft | 128 kts | 98° |
| 2026-04-26 04:26 | 21.05109 | -157.34707 | 2064 ft | 135 kts | 98° |
| 2026-04-26 04:26 | 21.04979 | -157.33735 | 1780 ft | 128 kts | 98° |
| 2026-04-26 04:27 | 21.04846 | -157.32784 | 1440 ft | 129 kts | 98° |
| 2026-04-26 04:27 | 21.04707 | -157.31819 | 1104 ft | 129 kts | 99° |
| 2026-04-26 04:27 | 21.04566 | -157.30870 | 756 ft | 130 kts | 99° |
| 2026-04-26 04:27 | 21.04423 | -157.29928 | 408 ft | 131 kts | 99° |
| 2026-04-26 04:28 | 21.04277 | -157.28985 | 149 ft | 124 kts | 99° |
| 2026-04-26 04:28 | 21.03976 | -157.27100 | 3130 ft | 273 kts | 99° |
| 2026-04-26 04:28 | 21.03740 | -157.25596 | 5972 ft | 142 kts | 99° |
| 2026-04-26 04:28 | 21.03614 | -157.24720 | 5980 ft | 129 kts | 98° |
| 2026-04-26 04:29 | 21.03485 | -157.23713 | 5798 ft | 123 kts | 97° |
| 2026-04-26 04:29 | 21.03364 | -157.22709 | 5380 ft | 127 kts | 97° |
| 2026-04-26 04:29 | 21.03243 | -157.21709 | 4987 ft | 131 kts | 97° |
| 2026-04-26 04:29 | 21.03117 | -157.20700 | 4501 ft | 141 kts | 98° |
| 2026-04-26 04:30 | 21.02986 | -157.19693 | 4201 ft | 133 kts | 98° |
| 2026-04-26 04:30 | 21.02849 | -157.18707 | 3871 ft | 133 kts | 98° |
| 2026-04-26 04:30 | 21.02704 | -157.17720 | 3511 ft | 133 kts | 99° |
| 2026-04-26 04:30 | 21.02550 | -157.16731 | 3124 ft | 135 kts | 99° |
| 2026-04-26 04:31 | 21.02391 | -157.15758 | 2838 ft | 131 kts | 100° |
| 2026-04-26 04:31 | 21.02222 | -157.14784 | 2409 ft | 135 kts | 101° |
| 2026-04-26 04:31 | 21.02047 | -157.13821 | 2098 ft | 133 kts | 101° |
| 2026-04-26 04:31 | 21.01859 | -157.12855 | 1746 ft | 133 kts | 102° |
| 2026-04-26 04:32 | 21.01663 | -157.11901 | 1444 ft | 130 kts | 103° |
| 2026-04-26 04:32 | 21.01456 | -157.10951 | 1114 ft | 128 kts | 103° |
| 2026-04-26 04:32 | 21.01241 | -157.10013 | 731 ft | 133 kts | 104° |
| 2026-04-26 04:32 | 21.01014 | -157.09088 | 489 ft | 125 kts | 105° |
| 2026-04-26 04:33 | 21.00778 | -157.08176 | 88 ft | 131 kts | 106° |
| 2026-04-26 04:33 | 21.00420 | -157.06877 | 1630 ft | 327 kts | 107° |
| 2026-04-26 04:33 | 20.99925 | -157.05086 | 5228 ft | 183 kts | 107° |
| 2026-04-26 04:33 | 20.99666 | -157.04122 | 6358 ft | 114 kts | 106° |
| 2026-04-26 04:34 | 20.99416 | -157.03146 | 5807 ft | 126 kts | 105° |
| 2026-04-26 04:34 | 20.99174 | -157.02178 | 5315 ft | 134 kts | 105° |
| 2026-04-26 04:34 | 20.98932 | -157.01211 | 4987 ft | 134 kts | 105° |
| 2026-04-26 04:34 | 20.98682 | -157.00237 | 4708 ft | 132 kts | 105° |
| 2026-04-26 04:35 | 20.98426 | -156.99269 | 4250 ft | 139 kts | 106° |
| 2026-04-26 04:35 | 20.98164 | -156.98311 | 3932 ft | 135 kts | 107° |
| 2026-04-26 04:35 | 20.97891 | -156.97350 | 3547 ft | 138 kts | 107° |
| 2026-04-26 04:35 | 20.97607 | -156.96395 | 3295 ft | 130 kts | 108° |
| 2026-04-26 04:36 | 20.97314 | -156.95450 | 2845 ft | 137 kts | 109° |
| 2026-04-26 04:36 | 20.97011 | -156.94520 | 2605 ft | 128 kts | 110° |
| 2026-04-26 04:36 | 20.96701 | -156.93601 | 2160 ft | 136 kts | 110° |
| 2026-04-26 04:36 | 20.96381 | -156.92681 | 1880 ft | 128 kts | 111° |
| 2026-04-26 04:37 | 20.96059 | -156.91793 | 1555 ft | 129 kts | 112° |
| 2026-04-26 04:37 | 20.95712 | -156.90890 | 1174 ft | 131 kts | 113° |
| 2026-04-26 04:37 | 20.95361 | -156.90010 | 891 ft | 127 kts | 114° |
| 2026-04-26 04:37 | 20.94992 | -156.89131 | 505 ft | 130 kts | 115° |
| 2026-04-26 04:38 | 20.94618 | -156.88272 | 252 ft | 124 kts | 115° |
| 2026-04-26 04:38 | 20.93998 | -156.86910 | 1673 ft | 326 kts | 116° |
| 2026-04-26 04:38 | 20.93230 | -156.85231 | 5251 ft | 182 kts | 116° |
| 2026-04-26 04:38 | 20.92830 | -156.84329 | 6398 ft | 113 kts | 115° |
| 2026-04-26 04:39 | 20.92441 | -156.83413 | 5818 ft | 125 kts | 114° |
| 2026-04-26 04:39 | 20.92070 | -156.82505 | 5299 ft | 139 kts | 114° |
| 2026-04-26 04:39 | 20.91700 | -156.81584 | 4983 ft | 136 kts | 113° |
| 2026-04-26 04:39 | 20.91334 | -156.80660 | 4713 ft | 132 kts | 113° |
| 2026-04-26 04:40 | 20.90964 | -156.79730 | 4259 ft | 140 kts | 114° |
| 2026-04-26 04:40 | 20.90588 | -156.78805 | 3986 ft | 132 kts | 114° |
| 2026-04-26 04:40 | 20.90212 | -156.77890 | 3555 ft | 138 kts | 114° |
| 2026-04-26 04:40 | 20.89828 | -156.76975 | 3251 ft | 131 kts | 115° |
| 2026-04-26 04:41 | 20.89443 | -156.76085 | 2929 ft | 130 kts | 115° |
| 2026-04-26 04:41 | 20.89045 | -156.75190 | 2503 ft | 135 kts | 116° |
| 2026-04-26 04:41 | 20.88650 | -156.74326 | 2273 ft | 127 kts | 117° |
| 2026-04-26 04:41 | 20.88241 | -156.73455 | 1826 ft | 136 kts | 117° |
| 2026-04-26 04:42 | 20.87824 | -156.72591 | 1559 ft | 127 kts | 118° |
| 2026-04-26 04:42 | 20.87407 | -156.71743 | 1209 ft | 129 kts | 118° |
| 2026-04-26 04:42 | 20.86972 | -156.70889 | 846 ft | 130 kts | 120° |
| 2026-04-26 04:42 | 20.86531 | -156.70065 | 584 ft | 126 kts | 120° |
| 2026-04-26 04:43 | 20.86080 | -156.69249 | 214 ft | 129 kts | 121° |
| 2026-04-26 04:43 | 20.85715 | -156.68603 | 667 ft | 418 kts | 121° |
| 2026-04-26 04:43 | 20.84593 | -156.66633 | 4270 ft | 227 kts | 121° |
| 2026-04-26 04:43 | 20.84008 | -156.65577 | 6358 ft | 116 kts | 120° |
| 2026-04-26 04:44 | 20.83584 | -156.64768 | 5618 ft | 155 kts | 119° |
| 2026-04-26 04:44 | 20.83155 | -156.63907 | 5371 ft | 143 kts | 118° |
| 2026-04-26 04:44 | 20.82718 | -156.63010 | 5042 ft | 141 kts | 117° |
| 2026-04-26 04:44 | 20.82275 | -156.62099 | 4688 ft | 142 kts | 118° |
| 2026-04-26 04:45 | 20.81835 | -156.61201 | 4455 ft | 133 kts | 118° |
| 2026-04-26 04:45 | 20.81397 | -156.60299 | 4018 ft | 138 kts | 117° |
| 2026-04-26 04:45 | 20.80965 | -156.59410 | 3750 ft | 132 kts | 118° |
| 2026-04-26 04:45 | 20.80531 | -156.58535 | 3319 ft | 137 kts | 118° |
| 2026-04-26 04:46 | 20.80088 | -156.57665 | 3079 ft | 129 kts | 119° |
| 2026-04-26 04:46 | 20.79629 | -156.56810 | 2635 ft | 137 kts | 121° |
| 2026-04-26 04:46 | 20.79155 | -156.55966 | 2377 ft | 129 kts | 121° |
| 2026-04-26 04:46 | 20.78696 | -156.55125 | 1983 ft | 135 kts | 120° |
| 2026-04-26 04:47 | 20.78253 | -156.54267 | 1708 ft | 128 kts | 119° |
| 2026-04-26 04:47 | 20.77817 | -156.53426 | 1361 ft | 129 kts | 120° |
| 2026-04-26 04:47 | 20.77374 | -156.52578 | 1009 ft | 130 kts | 119° |
| 2026-04-26 04:47 | 20.76944 | -156.51760 | 735 ft | 126 kts | 120° |
| 2026-04-26 04:48 | 20.76011 | -156.49974 | 670 ft | 418 kts | 118° |
| 2026-04-26 04:48 | 20.74998 | -156.47994 | 4301 ft | 226 kts | 118° |
| 2026-04-26 04:48 | 20.74458 | -156.46916 | 6389 ft | 116 kts | 118° |
| 2026-04-26 04:49 | 20.74056 | -156.46079 | 5640 ft | 154 kts | 117° |
| 2026-04-26 04:49 | 20.73652 | -156.45199 | 5359 ft | 146 kts | 116° |
| 2026-04-26 04:49 | 20.73239 | -156.44288 | 5034 ft | 144 kts | 116° |
| 2026-04-26 04:49 | 20.72824 | -156.43368 | 4683 ft | 142 kts | 116° |
| 2026-04-26 04:50 | 20.72415 | -156.42465 | 4475 ft | 132 kts | 116° |
| 2026-04-26 04:50 | 20.72003 | -156.41560 | 4027 ft | 139 kts | 116° |
| 2026-04-26 04:50 | 20.71586 | -156.40653 | 3727 ft | 133 kts | 116° |
| 2026-04-26 04:50 | 20.71174 | -156.39762 | 3393 ft | 132 kts | 116° |
| 2026-04-26 04:51 | 20.70766 | -156.38873 | 2970 ft | 137 kts | 116° |
| 2026-04-26 04:51 | 20.70356 | -156.37986 | 2720 ft | 130 kts | 116° |
| 2026-04-26 04:51 | 20.70003 | -156.37253 | 3043 ft | 418 kts | 118° |
| 2026-04-26 04:51 | 20.69003 | -156.35255 | 6675 ft | 230 kts | 118° |
| 2026-04-26 04:52 | 20.68452 | -156.34143 | 8794 ft | 123 kts | 118° |
| 2026-04-26 04:52 | 20.68020 | -156.33258 | 8000 ft | 162 kts | 118° |
| 2026-04-26 04:52 | 20.67567 | -156.32323 | 7716 ft | 155 kts | 117° |
| 2026-04-26 04:52 | 20.67103 | -156.31359 | 7378 ft | 152 kts | 117° |
| 2026-04-26 04:53 | 20.66657 | -156.30401 | 7096 ft | 142 kts | 116° |
| 2026-04-26 04:53 | 20.66217 | -156.29447 | 6687 ft | 145 kts | 116° |
| 2026-04-26 04:53 | 20.65767 | -156.28491 | 6339 ft | 140 kts | 117° |
| 2026-04-26 04:53 | 20.65319 | -156.27556 | 5925 ft | 144 kts | 117° |
| 2026-04-26 04:54 | 20.64865 | -156.26625 | 5611 ft | 137 kts | 118° |
| 2026-04-26 04:54 | 20.64418 | -156.25712 | 5210 ft | 140 kts | 118° |
| 2026-04-26 04:54 | 20.63964 | -156.24797 | 4869 ft | 136 kts | 118° |
| 2026-04-26 04:54 | 20.63518 | -156.23904 | 4507 ft | 136 kts | 118° |
| 2026-04-26 04:55 | 20.63064 | -156.23002 | 4133 ft | 136 kts | 118° |
| 2026-04-26 04:55 | 20.62626 | -156.22134 | 3819 ft | 133 kts | 118° |
| 2026-04-26 04:55 | 20.62177 | -156.21248 | 3408 ft | 136 kts | 119° |
| 2026-04-26 04:55 | 20.61738 | -156.20380 | 3131 ft | 130 kts | 118° |
| 2026-04-26 04:56 | 20.61301 | -156.19503 | 2691 ft | 136 kts | 118° |
| 2026-04-26 04:56 | 20.60874 | -156.18650 | 2451 ft | 128 kts | 118° |
| 2026-04-26 04:56 | 20.60433 | -156.17796 | 2001 ft | 136 kts | 120° |
| 2026-04-26 04:56 | 20.59976 | -156.16952 | 1740 ft | 127 kts | 121° |
| 2026-04-26 04:57 | 20.59511 | -156.16131 | 1360 ft | 131 kts | 122° |
| 2026-04-26 04:57 | 20.59027 | -156.15307 | 1079 ft | 127 kts | 123° |
| 2026-04-26 04:57 | 20.58542 | -156.14501 | 668 ft | 133 kts | 123° |
| 2026-04-26 04:57 | 20.58061 | -156.13699 | 414 ft | 125 kts | 122° |
| 2026-04-26 04:58 | 20.57591 | -156.12863 | 668 ft | 418 kts | 120° |
| 2026-04-26 04:58 | 20.56547 | -156.10915 | 4342 ft | 225 kts | 120° |
| 2026-04-26 04:58 | 20.55992 | -156.09858 | 6412 ft | 116 kts | 119° |
| 2026-04-26 04:58 | 20.55575 | -156.09024 | 5655 ft | 154 kts | 117° |
| 2026-04-26 04:59 | 20.55162 | -156.08160 | 5380 ft | 146 kts | 117° |
| 2026-04-26 04:59 | 20.54742 | -156.07260 | 5083 ft | 140 kts | 116° |
| 2026-04-26 04:59 | 20.54318 | -156.06349 | 4699 ft | 144 kts | 116° |
| 2026-04-26 04:59 | 20.53895 | -156.05439 | 4447 ft | 133 kts | 117° |
| 2026-04-26 05:00 | 20.53478 | -156.04546 | 4099 ft | 134 kts | 117° |
| 2026-04-26 05:00 | 20.53063 | -156.03661 | 3674 ft | 139 kts | 117° |
| 2026-04-26 05:00 | 20.52644 | -156.02773 | 3422 ft | 132 kts | 117° |
| 2026-04-26 05:00 | 20.52221 | -156.01887 | 2996 ft | 136 kts | 117° |
| 2026-04-26 05:01 | 20.51800 | -156.01011 | 2732 ft | 130 kts | 117° |
| 2026-04-26 05:01 | 20.51375 | -156.00136 | 2323 ft | 134 kts | 117° |
| 2026-04-26 05:01 | 20.50956 | -155.99275 | 2060 ft | 128 kts | 117° |
| 2026-04-26 05:01 | 20.50536 | -155.98412 | 1612 ft | 136 kts | 118° |
| 2026-04-26 05:02 | 20.50111 | -155.97548 | 1329 ft | 130 kts | 118° |
| 2026-04-26 05:02 | 20.49695 | -155.96702 | 1011 ft | 129 kts | 118° |
| 2026-04-26 05:02 | 20.49268 | -155.95852 | 667 ft | 130 kts | 119° |
| 2026-04-26 05:02 | 20.48840 | -155.95009 | 355 ft | 128 kts | 118° |
| 2026-04-26 05:03 | 20.48434 | -155.94160 | 35 ft | 127 kts | 116° |
| 2026-04-26 05:03 | 20.48401 | -155.94089 | 8 ft | 0 kts | 116° |
| 2026-04-26 05:12 | 20.48401 | -155.94090 | 8 ft | 0 kts | 116° |
| 2026-04-26 05:15 | 20.48402 | -155.94090 | 8 ft | 0 kts | 115° |